Return to Metar
METAR CYNL 040800Z AUTO 07009KT 9SM SCT076 BKN090 05/01 A2986 RMK AO1 SLP117
METAR CYNL 040700Z AUTO 07011KT 9SM OVC084 06/01 A2986 RMK AO1 SLP114
METAR CYNL 040600Z AUTO 07011KT 9SM CLR 07/02 A2984 RMK AO1 SLP108
METAR CYNL 040500Z AUTO 08009G15KT 9SM BKN078 OVC100 09/03 A2983 RMK AO1 SLP101
METAR CYNL 040400Z AUTO 07010KT 9SM OVC078 11/04 A2982 RMK AO1 SLP096
METAR CYNL 040300Z AUTO 07009KT 9SM SCT082 BKN120 11/04 A2980 RMK AO1 SLP091
METAR CYNL 040200Z AUTO 06009KT 9SM BKN092 12/04 A2979 RMK AO1 SLP090
METAR CYNL 040100Z AUTO 07007G16KT 9SM OVC082 14/05 A2978 RMK AO1 SLP085
METAR CYNL 040000Z AUTO 10013KT 9SM SCT100 15/05 A2976 RMK AO1 SLP080
METAR CYNL 032300Z AUTO 08011G18KT 9SM FEW120 16/05 A2975 RMK AO1 SLP078
METAR CYNL 032200Z AUTO 08010G15KT 9SM SCT110 16/05 A2974 RMK AO1 SLP076
METAR CYNL 032100Z AUTO 07011KT 9SM CLR 16/06 A2973 RMK AO1 SLP073
METAR CYNL 032000Z AUTO 10010KT 9SM CLR 16/06 A2973 RMK AO1 SLP072
METAR CYNL 031900Z AUTO 09007KT 9SM CLR 17/06 A2973 RMK AO1 SLP071
METAR CYNL 031800Z AUTO 07007KT 9SM CLR 17/06 A2973 RMK AO1 SLP068
METAR CYNL 031700Z AUTO 07007KT 9SM CLR 16/06 A2972 RMK AO1 SLP066
METAR CYNL 031600Z AUTO 06006KT 9SM CLR 15/06 A2972 RMK AO1 SLP066
METAR CYNL 031500Z AUTO 12005KT 9SM FEW086 13/05 A2973 RMK AO1 SLP068
METAR CYNL 031400Z AUTO 14005KT 9SM CLR 12/05 A2973 RMK AO1 SLP067
METAR CYNL 031300Z AUTO 12005KT 9SM CLR 10/05 A2973 RMK AO1 SLP064
METAR CYNL 031200Z AUTO 10004KT 9SM CLR 07/04 A2973 RMK AO1 SLP068
METAR CYNL 031100Z AUTO 06003KT 9SM CLR 05/04 A2973 RMK AO1 SLP070
METAR CYNL 031000Z AUTO 06004KT 9SM CLR 05/04 A2973 RMK AO1 SLP070
METAR CYNL 030900Z AUTO 10003KT 9SM FEW080 06/04 A2974 RMK AO1 SLP072
METAR CYNL 030800Z AUTO 05003KT 9SM SCT120 06/04 A2974 RMK AO1 SLP075
METAR CYNL 030700Z AUTO 08004KT 9SM FEW130 07/04 A2974 RMK AO1 SLP075
METAR CYNL 030600Z AUTO 09004KT 9SM FEW080 09/04 A2975 RMK AO1 SLP078
METAR CYNL 030500Z AUTO 09005KT 9SM OVC088 10/04 A2976 RMK AO1 SLP080
METAR CYNL 030400Z AUTO 08005KT 9SM OVC096 12/04 A2975 RMK AO1 SLP080
METAR CYNL 030300Z AUTO 08006KT 9SM SCT110 13/05 A2975 RMK AO1 SLP078
METAR CYNL 030200Z AUTO 00000KT 9SM CLR 18/02 A2973 RMK AO1 SLP069
METAR CYNL 030100Z AUTO 01005KT 9SM FEW092 18/03 A2974 RMK AO1 SLP072
METAR CYNL 030000Z AUTO 32003KT 9SM CLR 18/03 A2974 RMK AO1 SLP072
METAR CYNL 022300Z AUTO 31007G16KT 9SM FEW064 18/02 A2973 RMK AO1 SLP070
METAR CYNL 022200Z AUTO 29009KT 9SM FEW056 17/04 A2973 RMK AO1 SLP070
METAR CYNL 022100Z AUTO 29009KT 9SM CLR 16/04 A2973 RMK AO1 SLP073
METAR CYNL 022000Z AUTO 30009KT 9SM FEW044 15/04 A2973 RMK AO1 SLP075
METAR CYNL 021900Z AUTO 30010G22KT 9SM CLR 14/04 A2973 RMK AO1 SLP076
METAR CYNL 021800Z AUTO 28007G15KT 9SM CLR 12/05 A2973 RMK AO1 SLP076
METAR CYNL 021700Z AUTO 28008G17KT 9SM FEW011 SCT015 09/06 A2973 RMK AO1 SLP080
SPECI CYNL 021647Z AUTO 29011G19KT 9SM SCT013 09/06 A2973 RMK AO1 SLP082
SPECI CYNL 021645Z AUTO 29011G19KT 9SM SCT013 BKN016 09/06 A2973 RMK AO1 SLP082
METAR CYNL 021600Z AUTO 28013KT 9SM BKN011 OVC016 07/05 A2973 RMK AO1 SLP082
METAR CYNL 021500Z AUTO 29012G18KT 9SM OVC012 06/05 A2972 RMK AO1 SLP081
SPECI CYNL 021445Z AUTO 28014G21KT 9SM FEW008 BKN010 OVC013 06/04 A2972 RMK AO1 SLP081
SPECI CYNL 021444Z AUTO 28011G20KT 9SM BKN009 OVC013 06/04 A2972 RMK AO1 SLP081
SPECI CYNL 021443Z AUTO 28012G20KT 9SM FEW008 BKN010 OVC013 06/04 A2972 RMK AO1 SLP081
SPECI CYNL 021442Z AUTO 28013G20KT 9SM BKN009 OVC013 06/04 A2972 RMK AO1 SLP081
SPECI CYNL 021440Z AUTO 29012G20KT 9SM SCT008 BKN010 OVC012 06/05 A2972 RMK AO1 SLP081
SPECI CYNL 021435Z AUTO 28009G18KT 9SM OVC009 06/05 A2972 RMK AO1 SLP080
SPECI CYNL 021434Z AUTO 28010G18KT 9SM SCT008 OVC010 06/05 A2972 RMK AO1 SLP080
SPECI CYNL 021430Z AUTO 28010G17KT 9SM OVC009 06/05 A2972 RMK AO1 SLP080
SPECI CYNL 021425Z AUTO 28010G16KT 9SM SCT008 BKN010 OVC017 06/05 A2972 RMK AO1 SLP080
METAR CYNL 021400Z AUTO 28009G16KT 9SM SCT006 BKN009 OVC018 06/05 A2972 RMK AO1 SLP080
SPECI CYNL 021315Z AUTO 29008G17KT 3SM BKN005 OVC008 05/05 A2971 RMK AO1 SLP078
SPECI CYNL 021312Z AUTO 29008G17KT 2 1/2SM BKN005 OVC008 05/05 A2971 RMK AO1 SLP078
SPECI CYNL 021306Z AUTO 30010KT 3SM OVC005 06/06 A2971 RMK AO1 SLP077
SPECI CYNL 021304Z AUTO 30009KT 2 1/2SM OVC005 06/06 A2971 RMK AO1 SLP076
SPECI CYNL 021303Z AUTO 28008KT 1 3/4SM OVC005 06/06 A2971 RMK AO1 SLP076
SPECI CYNL 021301Z AUTO 27006KT 1 1/2SM BKN004 OVC006 06/06 A2971 RMK AO1 SLP076
METAR CYNL 021300Z AUTO 27006KT 1 1/2SM OVC005 06/06 A2971 RMK AO1 SLP076
SPECI CYNL 021259Z AUTO 27006KT 1 1/2SM OVC005 06/06 A2971 RMK AO1 SLP076
SPECI CYNL 021242Z AUTO 27006KT 1SM OVC005 06/06 A2971 RMK AO1 SLP075
SPECI CYNL 021240Z AUTO 27005KT 3/4SM BKN005 OVC009 06/06 A2971 RMK AO1 SLP075
SPECI CYNL 021238Z AUTO 27006KT 1SM OVC005 06/05 A2971 RMK AO1 SLP075
SPECI CYNL 021237Z AUTO 27006KT 1 1/2SM OVC005 06/05 A2970 RMK AO1 SLP074
SPECI CYNL 021236Z AUTO 27006KT 2SM OVC005 06/05 A2970 RMK AO1 SLP074
SPECI CYNL 021228Z AUTO 28005KT 5SM OVC005 05/05 A2970 RMK AO1 SLP074
SPECI CYNL 021226Z AUTO 26005KT 3SM OVC004 05/05 A2970 RMK AO1 SLP074
SPECI CYNL 021211Z AUTO 28003KT 2SM OVC004 05/05 A2970 RMK AO1 SLP074
SPECI CYNL 021209Z AUTO 28004KT 1 1/2SM OVC004 05/05 A2970 RMK AO1 SLP073
SPECI CYNL 021208Z AUTO 28005KT 1 1/4SM OVC004 05/05 A2970 RMK AO1 SLP073
SPECI CYNL 021203Z AUTO 27005KT 1 1/2SM BKN004 OVC006 05/05 A2970 RMK AO1 SLP073
METAR CYNL 021200Z AUTO 28005KT 1 1/4SM BKN004 OVC006 05/05 A2970 RMK AO1 SLP073
SPECI CYNL 021158Z AUTO 28004KT 1 1/4SM BKN004 OVC006 05/05 A2970 RMK AO1 SLP073
SPECI CYNL 021151Z AUTO 28005KT 1 3/4SM BKN004 OVC006 05/05 A2970 RMK AO1 SLP072
SPECI CYNL 021149Z AUTO 29003KT 2SM BKN004 OVC006 05/05 A2970 RMK AO1 SLP072
SPECI CYNL 021148Z AUTO 29003KT 1 3/4SM BKN004 OVC006 05/05 A2970 RMK AO1 SLP072
SPECI CYNL 021143Z AUTO 28002KT 1 1/2SM OVC005 05/05 A2970 RMK AO1 SLP072
SPECI CYNL 021133Z AUTO 27004KT 1 1/4SM OVC005 05/05 A2970 RMK AO1 SLP072
SPECI CYNL 021131Z AUTO 26004KT 1 1/2SM OVC005 05/05 A2970 RMK AO1 SLP072
SPECI CYNL 021125Z AUTO 27005KT 1 1/4SM BKN005 OVC006 05/05 A2970 RMK AO1 SLP072
SPECI CYNL 021124Z AUTO 27003KT 1 1/2SM OVC005 05/05 A2970 RMK AO1 SLP072
SPECI CYNL 021123Z AUTO 27003KT 2SM OVC005 05/05 A2970 RMK AO1 SLP072
SPECI CYNL 021120Z AUTO 26003KT 3SM OVC005 05/05 A2970 RMK AO1 SLP072
SPECI CYNL 021118Z AUTO 27003KT 2SM OVC005 05/05 A2970 RMK AO1 SLP071
SPECI CYNL 021109Z AUTO 26003KT 1 3/4SM OVC005 05/05 A2969 RMK AO1 SLP071
SPECI CYNL 021107Z AUTO 26003KT 2SM OVC006 05/05 A2969 RMK AO1 SLP071
SPECI CYNL 021106Z AUTO 27004KT 1 3/4SM OVC006 05/05 A2969 RMK AO1 SLP071
METAR CYNL 021100Z AUTO 27005KT 2SM BKN006 OVC011 05/05 A2969 RMK AO1 SLP071
SPECI CYNL 021053Z AUTO 27005KT 2SM FEW003 BKN006 OVC011 05/05 A2969 RMK AO1 SLP071
SPECI CYNL 021048Z AUTO 27004KT 1 3/4SM FEW003 BKN006 OVC011 05/05 A2969 RMK AO1 SLP070
SPECI CYNL 021041Z AUTO 27004KT 2SM SCT003 BKN006 OVC011 05/05 A2969 RMK AO1 SLP070
SPECI CYNL 021036Z AUTO 25004KT 1 1/2SM SCT003 BKN006 OVC011 05/05 A2969 RMK AO1 SLP070
SPECI CYNL 021033Z AUTO 23003KT 1 3/4SM BKN003 BKN006 OVC009 05/05 A2969 RMK AO1 SLP070
SPECI CYNL 021032Z AUTO 23003KT 2SM BKN003 BKN006 OVC009 05/05 A2969 RMK AO1 SLP069
SPECI CYNL 021019Z AUTO 21002KT 1 1/2SM BKN003 OVC007 05/05 A2969 RMK AO1 SLP069
SPECI CYNL 021016Z AUTO 22003KT 1 1/4SM BKN003 OVC007 05/05 A2969 RMK AO1 SLP069
SPECI CYNL 021014Z AUTO 22004KT 1 1/2SM BKN003 OVC007 05/05 A2969 RMK AO1 SLP069
SPECI CYNL 021002Z AUTO 22003KT 1 1/4SM BKN003 BKN005 OVC008 05/05 A2969 RMK AO1 SLP068
METAR CYNL 021000Z AUTO 21003KT 1 1/2SM BKN003 BKN005 OVC008 05/05 A2969 RMK AO1 SLP068
SPECI CYNL 020958Z AUTO 22003KT 1 1/2SM BKN003 BKN005 OVC008 05/05 A2969 RMK AO1 SLP068
SPECI CYNL 020957Z AUTO 21003KT 1 3/4SM SCT003 BKN005 OVC008 05/05 A2969 RMK AO1 SLP068
SPECI CYNL 020955Z AUTO 21002KT 1 3/4SM BKN003 BKN005 OVC008 05/05 A2969 RMK AO1 SLP068
SPECI CYNL 020952Z AUTO 22003KT 1 3/4SM SCT003 BKN005 OVC008 05/05 A2968 RMK AO1 SLP068
SPECI CYNL 020951Z AUTO 21002KT 1 1/2SM BKN003 OVC008 05/05 A2968 RMK AO1 SLP068
SPECI CYNL 020945Z AUTO 22003KT 1 1/2SM SCT003 BKN006 OVC009 05/05 A2969 RMK AO1 SLP068
SPECI CYNL 020928Z AUTO 22004KT 1SM FEW003 BKN007 OVC011 05/05 A2968 RMK AO1 SLP067
SPECI CYNL 020919Z AUTO 24003KT 3/4SM BKN007 OVC011 05/05 A2968 RMK AO1 SLP067
SPECI CYNL 020916Z AUTO 25002KT 1 1/4SM BKN007 BKN009 OVC012 05/05 A2968 RMK AO1 SLP067
SPECI CYNL 020913Z AUTO 26003KT 1 3/4SM BKN006 OVC008 05/05 A2968 RMK AO1 SLP067
SPECI CYNL 020910Z AUTO 26002KT 2SM BKN007 BKN010 OVC013 05/05 A2968 RMK AO1 SLP067
SPECI CYNL 020907Z AUTO 26003KT 1 3/4SM BKN007 BKN011 OVC013 05/05 A2968 RMK AO1 SLP067
SPECI CYNL 020906Z AUTO 26003KT 2SM BKN007 OVC011 05/05 A2968 RMK AO1 SLP067
SPECI CYNL 020903Z AUTO 25003KT 2 1/2SM SCT008 BKN011 OVC019 05/05 A2968 RMK AO1 SLP066
METAR CYNL 020900Z AUTO 26003KT 4SM SCT008 BKN011 OVC019 05/05 A2968 RMK AO1 SLP066
SPECI CYNL 020856Z AUTO 26003KT 5SM SCT009 OVC012 05/05 A2968 RMK AO1 SLP066
SPECI CYNL 020854Z AUTO 27003KT 9SM BKN009 OVC012 05/05 A2968 RMK AO1 SLP065
SPECI CYNL 020822Z AUTO 27005KT 9SM FEW009 BKN014 OVC033 05/05 A2968 RMK AO1 SLP065
SPECI CYNL 020812Z AUTO 27006KT 9SM SCT009 BKN027 OVC033 05/05 A2968 RMK AO1 SLP064
SPECI CYNL 020809Z AUTO 27005KT 9SM BKN009 OVC026 05/05 A2968 RMK AO1 SLP065
SPECI CYNL 020807Z AUTO 28006KT 9SM BKN010 OVC025 05/05 A2968 RMK AO1 SLP065
SPECI CYNL 020805Z AUTO 27007KT 9SM BKN009 BKN011 OVC024 05/05 A2968 RMK AO1 SLP065
METAR CYNL 020800Z AUTO 27007KT 9SM BKN010 BKN013 OVC023 05/05 A2968 RMK AO1 SLP064
SPECI CYNL 020718Z AUTO 27005KT 9SM FEW009 BKN011 OVC019 05/05 A2967 RMK AO1 SLP063
METAR CYNL 020700Z AUTO 27007KT 9SM SCT005 OVC019 05/05 A2967 RMK AO1 SLP063
SPECI CYNL 020656Z AUTO 27008KT 6SM SCT004 OVC019 05/05 A2967 RMK AO1 SLP063
SPECI CYNL 020651Z AUTO 26008KT 3SM VV017 05/05 A2967 RMK AO1 SLP063
SPECI CYNL 020650Z AUTO 26008KT 2 1/2SM VV017 06/05 A2967 RMK AO1 SLP063
SPECI CYNL 020646Z AUTO 27007KT 2SM BKN004 BKN006 OVC019 06/06 A2967 RMK AO1 SLP063
SPECI CYNL 020644Z AUTO 26007KT 1 1/2SM BKN004 OVC011 06/06 A2967 RMK AO1 SLP063
SPECI CYNL 020640Z AUTO 27006KT 1 1/4SM BKN004 BKN005 OVC019 06/06 A2967 RMK AO1 SLP063
SPECI CYNL 020639Z AUTO 27006KT 1 1/4SM SCT003 BKN005 OVC019 06/06 A2967 RMK AO1 SLP063
SPECI CYNL 020638Z AUTO 27005KT 1 3/4SM SCT003 BKN006 OVC019 06/06 A2967 RMK AO1 SLP063
SPECI CYNL 020633Z AUTO 28006KT 2SM OVC004 06/06 A2967 RMK AO1 SLP063
SPECI CYNL 020629Z AUTO 29005KT 1 1/2SM OVC003 06/06 A2967 RMK AO1 SLP062
SPECI CYNL 020613Z AUTO 00000KT 1 1/4SM BKN003 OVC006 06/06 A2967 RMK AO1 SLP061
SPECI CYNL 020610Z AUTO 25003KT 1 3/4SM BKN003 OVC006 06/06 A2967 RMK AO1 SLP061
SPECI CYNL 020607Z AUTO 22002KT 2 1/2SM BKN004 OVC006 06/06 A2967 RMK AO1 SLP061
METAR CYNL 020600Z AUTO 21002KT 3SM BKN004 OVC006 05/05 A2967 RMK AO1 SLP061
SPECI CYNL 020558Z AUTO 21003KT 3SM BKN004 OVC006 05/05 A2967 RMK AO1 SLP061
SPECI CYNL 020547Z AUTO 21003KT 2SM BKN004 BKN006 OVC009 05/05 A2967 RMK AO1 SLP061
SPECI CYNL 020541Z AUTO 20003KT 1 1/2SM BKN003 OVC008 05/05 A2967 RMK AO1 SLP061
SPECI CYNL 020536Z AUTO 20003KT 1 1/4SM BKN003 BKN006 OVC008 05/05 A2967 RMK AO1 SLP062
SPECI CYNL 020531Z AUTO 20003KT 1 1/2SM BKN003 OVC008 05/05 A2967 RMK AO1 SLP062
SPECI CYNL 020530Z AUTO 20003KT 1 1/4SM BKN003 OVC008 05/05 A2967 RMK AO1 SLP062
SPECI CYNL 020529Z AUTO 19003KT 1 1/4SM BKN002 OVC008 05/05 A2967 RMK AO1 SLP062
SPECI CYNL 020526Z AUTO 18004KT 1 1/4SM VV006 05/05 A2967 RMK AO1 SLP062
SPECI CYNL 020523Z AUTO 20003KT 1 1/4SM OVC002 05/05 A2967 RMK AO1 SLP062
SPECI CYNL 020519Z AUTO 19003KT 1 1/2SM OVC002 05/05 A2967 RMK AO1 SLP063
SPECI CYNL 020503Z AUTO 19003KT 1SM OVC002 05/05 A2967 RMK AO1 SLP063
METAR CYNL 020500Z AUTO 19003KT 1 1/4SM OVC003 05/05 A2967 RMK AO1 SLP063
SPECI CYNL 020451Z AUTO 18003KT 1 1/4SM OVC003 05/05 A2967 RMK AO1 SLP062
SPECI CYNL 020440Z AUTO 16007KT 1 1/2SM OVC003 05/05 A2967 RMK AO1 SLP062
SPECI CYNL 020436Z AUTO 16006KT 1 1/2SM OVC002 05/05 A2967 RMK AO1 SLP062
SPECI CYNL 020434Z AUTO 16005KT 1 1/4SM OVC002 05/05 A2967 RMK AO1 SLP062
SPECI CYNL 020425Z AUTO 16005KT 1 1/2SM OVC002 05/04 A2967 RMK AO1 SLP063
METAR CYNL 020400Z AUTO 16006KT 1 1/4SM OVC002 05/05 A2967 RMK AO1 SLP063
SPECI CYNL 020358Z AUTO 15006KT 1 1/4SM OVC002 05/05 A2967 RMK AO1 SLP063
SPECI CYNL 020355Z AUTO 15006KT 1 3/4SM OVC002 05/05 A2967 RMK AO1 SLP063
SPECI CYNL 020348Z AUTO 15006KT 1 3/4SM OVC003 05/05 A2967 RMK AO1 SLP063
SPECI CYNL 020342Z AUTO 15006KT 2SM OVC003 05/05 A2967 RMK AO1 SLP063
SPECI CYNL 020335Z AUTO 14005KT 1 1/2SM OVC003 05/05 A2967 RMK AO1 SLP062
SPECI CYNL 020334Z AUTO 14006KT 1 1/4SM OVC003 05/05 A2967 RMK AO1 SLP062
SPECI CYNL 020330Z AUTO 14005KT 1 3/4SM OVC003 05/05 A2967 RMK AO1 SLP062
SPECI CYNL 020329Z AUTO 14005KT 2SM OVC003 05/05 A2967 RMK AO1 SLP062
SPECI CYNL 020322Z AUTO 14005KT 1 3/4SM OVC003 05/05 A2967 RMK AO1 SLP062
SPECI CYNL 020318Z AUTO 13007KT 2SM OVC003 05/05 A2967 RMK AO1 SLP062
SPECI CYNL 020316Z AUTO 13006KT 1 3/4SM OVC003 05/05 A2967 RMK AO1 SLP062
SPECI CYNL 020315Z AUTO 13007KT 1 1/2SM OVC002 05/05 A2967 RMK AO1 SLP062
SPECI CYNL 020312Z AUTO 14007KT 1 1/4SM OVC002 05/05 A2967 RMK AO1 SLP062
SPECI CYNL 020309Z AUTO 14008KT 1 1/2SM OVC002 05/05 A2967 RMK AO1 SLP062
SPECI CYNL 020307Z AUTO 14007KT 1 1/4SM OVC002 05/05 A2967 RMK AO1 SLP062
SPECI CYNL 020305Z AUTO 14007KT 1 1/2SM OVC002 05/05 A2967 RMK AO1 SLP062
SPECI CYNL 020302Z AUTO 15006KT 1 3/4SM OVC003 05/05 A2967 RMK AO1 SLP062
SPECI CYNL 020301Z AUTO 15007KT 2SM OVC003 05/05 A2967 RMK AO1 SLP062
METAR CYNL 020300Z AUTO 14008KT 1 3/4SM OVC003 05/05 A2967 RMK AO1 SLP062
SPECI CYNL 020256Z AUTO 13008KT 1 1/2SM OVC003 05/05 A2967 RMK AO1 SLP061
SPECI CYNL 020254Z AUTO 14006KT 1 1/4SM OVC003 05/05 A2967 RMK AO1 SLP061
SPECI CYNL 020248Z AUTO 14008KT 1 3/4SM OVC003 05/05 A2967 RMK AO1 SLP061
SPECI CYNL 020231Z AUTO 13006KT 2SM OVC003 05/05 A2966 RMK AO1 SLP059
SPECI CYNL 020225Z AUTO 13007KT 1 1/2SM OVC003 05/05 A2966 RMK AO1 SLP059
SPECI CYNL 020218Z AUTO 14006KT 2 1/2SM OVC003 05/05 A2966 RMK AO1 SLP058
SPECI CYNL 020216Z AUTO 13007KT 3SM OVC003 05/05 A2965 RMK AO1 SLP057
SPECI CYNL 020202Z AUTO 12007KT 2 1/2SM OVC003 05/05 A2965 RMK AO1 SLP056
METAR CYNL 020200Z AUTO 12008KT 3SM OVC004 05/05 A2965 RMK AO1 SLP056
SPECI CYNL 020137Z AUTO 12008KT 3SM OVC004 05/05 A2965 RMK AO1 SLP056
SPECI CYNL 020133Z AUTO 12007KT 2 1/2SM OVC004 05/05 A2965 RMK AO1 SLP055
SPECI CYNL 020131Z AUTO 12009KT 3SM OVC004 05/05 A2965 RMK AO1 SLP055
SPECI CYNL 020112Z AUTO 12007KT 2SM OVC004 05/05 A2965 RMK AO1 SLP056
SPECI CYNL 020110Z AUTO 12007KT 1 3/4SM BKN004 OVC005 05/05 A2965 RMK AO1 SLP055
SPECI CYNL 020104Z AUTO 12007KT 2SM OVC004 05/05 A2965 RMK AO1 SLP055
SPECI CYNL 020103Z AUTO 12007KT 2SM OVC005 05/05 A2965 RMK AO1 SLP055
SPECI CYNL 020102Z AUTO 12008KT 1 3/4SM OVC005 05/05 A2965 RMK AO1 SLP055
METAR CYNL 020100Z AUTO 12007KT 2SM OVC005 05/05 A2965 RMK AO1 SLP055
SPECI CYNL 020059Z AUTO 12007KT 2SM OVC005 05/05 A2965 RMK AO1 SLP055
SPECI CYNL 020057Z AUTO 12008KT 2SM BKN004 OVC006 05/05 A2965 RMK AO1 SLP056
SPECI CYNL 020050Z AUTO 12008KT 1 1/2SM OVC004 05/05 A2965 RMK AO1 SLP055
SPECI CYNL 020045Z AUTO 12006KT 1 1/4SM OVC005 05/05 A2965 RMK AO1 SLP054
SPECI CYNL 020038Z AUTO 11010KT 1 1/2SM OVC005 05/05 A2965 RMK AO1 SLP054
SPECI CYNL 020027Z AUTO 12007KT 1 3/4SM BKN004 OVC006 05/05 A2964 RMK AO1 SLP052
SPECI CYNL 020025Z AUTO 12006KT 1 3/4SM BKN005 OVC006 05/05 A2964 RMK AO1 SLP052
SPECI CYNL 020014Z AUTO 12009KT 2 1/2SM OVC005 05/05 A2964 RMK AO1 SLP052
SPECI CYNL 020009Z AUTO 12009KT 2SM BKN004 OVC006 05/05 A2964 RMK AO1 SLP052
SPECI CYNL 020003Z AUTO 11008KT 1 3/4SM OVC004 05/05 A2964 RMK AO1 SLP052
SPECI CYNL 020001Z AUTO 11009KT 2SM OVC004 05/05 A2964 RMK AO1 SLP052
METAR CYNL 020000Z AUTO 11008KT 1 3/4SM OVC004 05/05 A2964 RMK AO1 SLP051
SPECI CYNL 012359Z AUTO 11009KT 1 3/4SM OVC004 05/05 A2964 RMK AO1 SLP051
SPECI CYNL 012353Z AUTO 11009KT 2SM OVC004 05/05 A2964 RMK AO1 SLP051
SPECI CYNL 012336Z AUTO 11011KT 1 3/4SM OVC004 05/05 A2964 RMK AO1 SLP050
SPECI CYNL 012335Z AUTO 11009KT 2SM OVC005 05/05 A2964 RMK AO1 SLP050
SPECI CYNL 012330Z AUTO 11011KT 1 3/4SM OVC005 05/05 A2964 RMK AO1 SLP050
SPECI CYNL 012327Z AUTO 11007KT 1 3/4SM OVC004 05/05 A2964 RMK AO1 SLP050
SPECI CYNL 012310Z AUTO 10009KT 1 1/2SM OVC005 05/05 A2964 RMK AO1 SLP050
SPECI CYNL 012307Z AUTO 11010KT 1 1/2SM OVC004 05/05 A2964 RMK AO1 SLP050
METAR CYNL 012300Z AUTO 11010KT 1 1/4SM BKN004 OVC010 05/05 A2963 RMK AO1 SLP050
SPECI CYNL 012258Z AUTO 11008KT 1 1/4SM BKN004 OVC010 05/05 A2963 RMK AO1 SLP049
SPECI CYNL 012248Z AUTO 10009KT 1 3/4SM BKN004 OVC005 05/05 A2963 RMK AO1 PRESRR SLP049
SPECI CYNL 012243Z AUTO 10008KT 2 1/2SM OVC004 05/05 A2963 RMK AO1 PRESRR SLP049
METAR CYNL 012200Z AUTO 10011KT 9SM OVC004 05/05 A2962 RMK AO1 PRESRR SLP045
SPECI CYNL 012130Z AUTO 09009KT 3SM BKN004 OVC006 05/05 A2961 RMK AO1 SLP040
SPECI CYNL 012125Z AUTO 08009G15KT 2 1/2SM BKN004 OVC006 05/05 A2961 RMK AO1 SLP040
SPECI CYNL 012122Z AUTO 08009G15KT 6SM BKN004 OVC006 06/06 A2961 RMK AO1 SLP039
SPECI CYNL 012101Z AUTO 11012G19KT 3SM BKN006 OVC008 06/05 A2960 RMK AO1 SLP036
METAR CYNL 012100Z AUTO 10012G19KT 2 1/2SM BKN006 OVC008 06/06 A2960 RMK AO1 SLP036
SPECI CYNL 012056Z AUTO 11010G17KT 2 1/2SM OVC006 06/06 A2960 RMK AO1 SLP035
SPECI CYNL 012037Z AUTO 11010G17KT 3SM OVC005 06/05 A2960 RMK AO1 SLP037
SPECI CYNL 012032Z AUTO 10010G17KT 2SM OVC005 05/05 A2960 RMK AO1 SLP037
SPECI CYNL 012027Z AUTO 10012KT 1 1/2SM OVC005 05/05 A2960 RMK AO1 SLP037
SPECI CYNL 012023Z AUTO 10007KT 1 3/4SM OVC004 05/05 A2960 RMK AO1 SLP038
SPECI CYNL 012002Z AUTO 09009G17KT 2SM OVC004 05/05 A2960 RMK AO1 SLP035
METAR CYNL 012000Z AUTO 10010G17KT 1 1/2SM OVC004 05/05 A2959 RMK AO1 SLP035
SPECI CYNL 011956Z AUTO 10009G17KT 1 1/4SM OVC004 05/05 A2959 RMK AO1 SLP035
SPECI CYNL 011943Z AUTO 09010G18KT 1 1/2SM OVC004 05/05 A2959 RMK AO1 SLP034
SPECI CYNL 011942Z AUTO 09012G18KT 1 1/4SM OVC004 05/05 A2959 RMK AO1 SLP033
SPECI CYNL 011935Z AUTO 09011G16KT 1 1/2SM OVC004 05/05 A2958 RMK AO1 SLP032
SPECI CYNL 011931Z AUTO 09012KT 1 1/4SM OVC004 05/05 A2958 RMK AO1 SLP032
SPECI CYNL 011912Z AUTO 09013G21KT 1 1/2SM OVC004 05/05 A2958 RMK AO1 SLP031
METAR CYNL 011900Z AUTO 09011G21KT 1 1/4SM OVC004 05/05 A2958 RMK AO1 SLP031
SPECI CYNL 011856Z AUTO 09013G21KT 1 1/4SM OVC004 05/05 A2958 RMK AO1 SLP030
SPECI CYNL 011851Z AUTO 09014G23KT 1 3/4SM OVC004 05/05 A2958 RMK AO1 SLP030
SPECI CYNL 011848Z AUTO 09014G23KT 2SM OVC004 05/05 A2958 RMK AO1 SLP029
SPECI CYNL 011846Z AUTO 10014G23KT 1 3/4SM OVC004 05/05 A2957 RMK AO1 SLP029
SPECI CYNL 011845Z AUTO 10016G23KT 2SM OVC004 05/05 A2957 RMK AO1 SLP029
SPECI CYNL 011840Z AUTO 08011G21KT 1 3/4SM OVC004 05/05 A2957 RMK AO1 SLP028
SPECI CYNL 011826Z AUTO 09015G21KT 2SM OVC004 05/05 A2957 RMK AO1 SLP027
METAR CYNL 011800Z AUTO 09014KT 1 1/2SM OVC004 05/05 A2957 RMK AO1 SLP025
SPECI CYNL 011759Z AUTO 08014G19KT 1 1/2SM OVC004 05/05 A2957 RMK AO1 SLP025
SPECI CYNL 011758Z AUTO 08014KT 1 1/4SM OVC004 05/05 A2957 RMK AO1 SLP025
SPECI CYNL 011713Z AUTO 09015G20KT 1 1/2SM OVC004 05/05 A2956 RMK AO1 SLP022
SPECI CYNL 011709Z AUTO 09014KT 1 1/4SM OVC004 05/05 A2956 RMK AO1 SLP021
SPECI CYNL 011703Z AUTO 09012G19KT 1 1/2SM OVC004 05/05 A2955 RMK AO1 SLP021
SPECI CYNL 011702Z AUTO 08014KT 1 1/4SM OVC004 05/05 A2955 RMK AO1 SLP021
METAR CYNL 011700Z AUTO 09013G20KT 1 1/2SM OVC004 05/05 A2956 RMK AO1 SLP021
SPECI CYNL 011647Z AUTO 09014G20KT 1 1/2SM OVC004 05/05 A2955 RMK AO1 SLP020
SPECI CYNL 011624Z AUTO 09010G19KT 1 1/4SM OVC004 05/05 A2956 RMK AO1 SLP020
SPECI CYNL 011616Z AUTO 09014G20KT 1 1/2SM OVC004 05/05 A2955 RMK AO1 SLP020
SPECI CYNL 011612Z AUTO 09015G21KT 1 1/4SM OVC004 05/05 A2955 RMK AO1 SLP020
SPECI CYNL 011606Z AUTO 09013G21KT 1 1/2SM OVC004 05/05 A2955 RMK AO1 SLP020
METAR CYNL 011600Z AUTO 09014G20KT 1 1/4SM OVC004 05/05 A2955 RMK AO1 SLP019
SPECI CYNL 011541Z AUTO 08016G24KT 1 1/4SM OVC004 05/05 A2955 RMK AO1 SLP017
SPECI CYNL 011540Z AUTO 09015G23KT 1 1/2SM OVC004 05/05 A2955 RMK AO1 SLP017
SPECI CYNL 011532Z AUTO 09014G23KT 1 1/4SM OVC004 06/05 A2955 RMK AO1 SLP016
SPECI CYNL 011529Z AUTO 08015G23KT 1 1/2SM OVC004 06/05 A2955 RMK AO1 SLP016
SPECI CYNL 011527Z AUTO 08016G23KT 1 1/4SM OVC004 06/05 A2955 RMK AO1 SLP016
SPECI CYNL 011522Z AUTO 08015G23KT 1 3/4SM OVC004 06/06 A2955 RMK AO1 SLP015
SPECI CYNL 011521Z AUTO 08015G23KT 2SM OVC004 06/06 A2955 RMK AO1 SLP015
SPECI CYNL 011513Z AUTO 08013G20KT 1 1/2SM OVC004 06/06 A2955 RMK AO1 SLP015
SPECI CYNL 011504Z AUTO 09013G20KT 1 1/4SM BKN004 OVC006 06/06 A2954 RMK AO1 SLP014
SPECI CYNL 011502Z AUTO 09013G20KT 1 1/2SM BKN004 OVC006 06/06 A2954 RMK AO1 SLP014
SPECI CYNL 011501Z AUTO 09013G20KT 1 1/4SM BKN004 OVC006 06/06 A2954 RMK AO1 SLP014
METAR CYNL 011500Z AUTO 09013G20KT 1 1/2SM BKN004 OVC006 06/06 A2954 RMK AO1 SLP013
SPECI CYNL 011459Z AUTO 08013G20KT 1 1/2SM BKN005 OVC006 06/06 A2954 RMK AO1 SLP012
SPECI CYNL 011457Z AUTO 08014G20KT 1 1/4SM OVC005 06/06 A2954 RMK AO1 SLP011
SPECI CYNL 011455Z AUTO 08015G21KT 1 1/2SM OVC005 06/06 A2954 RMK AO1 SLP011
SPECI CYNL 011453Z AUTO 08013G21KT 1 3/4SM BKN004 OVC006 06/06 A2954 RMK AO1 SLP011
SPECI CYNL 011450Z AUTO 08014G21KT 1 3/4SM OVC005 06/06 A2954 RMK AO1 SLP010
SPECI CYNL 011444Z AUTO 08013G20KT 1 3/4SM OVC004 06/06 A2953 RMK AO1 SLP010
SPECI CYNL 011441Z AUTO 08013G22KT 2SM OVC004 06/06 A2953 RMK AO1 SLP009
SPECI CYNL 011437Z AUTO 08016G22KT 1 3/4SM OVC004 06/06 A2953 RMK AO1 SLP008
SPECI CYNL 011434Z AUTO 08016G22KT 2SM OVC004 06/06 A2953 RMK AO1 SLP008
SPECI CYNL 011425Z AUTO 08015G22KT 1 1/2SM OVC004 06/06 A2952 RMK AO1 SLP007
SPECI CYNL 011401Z AUTO 09016G22KT 1SM OVC004 06/06 A2953 RMK AO1 SLP009
METAR CYNL 011400Z AUTO 09017G23KT 1SM OVC005 06/06 A2953 RMK AO1 SLP009
SPECI CYNL 011358Z AUTO 08014G23KT 1 1/4SM OVC005 06/06 A2954 RMK AO1 SLP010
SPECI CYNL 011352Z AUTO 09015G23KT 1 3/4SM OVC004 06/06 A2954 RMK AO1 PRESFR SLP010
SPECI CYNL 011348Z AUTO 08015G23KT 2SM OVC004 06/06 A2954 RMK AO1 PRESFR SLP010
SPECI CYNL 011344Z AUTO 08017G23KT 1 3/4SM OVC004 06/06 A2954 RMK AO1 PRESFR SLP011
SPECI CYNL 011337Z AUTO 08015G21KT 2SM OVC004 06/06 A2954 RMK AO1 PRESFR SLP012
SPECI CYNL 011334Z AUTO 09016G21KT 1 1/2SM OVC004 06/06 A2954 RMK AO1 PRESFR SLP013
SPECI CYNL 011332Z AUTO 08013G21KT 1 1/4SM OVC004 06/06 A2955 RMK AO1 PRESFR SLP013
SPECI CYNL 011330Z AUTO 08013G21KT 1 1/2SM OVC004 06/06 A2955 RMK AO1 PRESFR SLP013
SPECI CYNL 011321Z AUTO 08017G23KT 1 1/4SM OVC004 06/06 A2955 RMK AO1 PRESFR SLP013
SPECI CYNL 011315Z AUTO 08013G22KT 1 1/2SM OVC004 06/06 A2955 RMK AO1 PRESFR SLP014
SPECI CYNL 011302Z AUTO 09013G19KT 1 3/4SM OVC005 06/06 A2955 RMK AO1 PRESFR SLP014
METAR CYNL 011300Z AUTO 08014G20KT 2SM OVC005 06/06 A2955 RMK AO1 PRESFR SLP014
SPECI CYNL 011253Z AUTO 09014G22KT 2 1/2SM OVC005 06/05 A2955 RMK AO1 PRESFR SLP014
METAR CYNL 011200Z AUTO 08013G19KT 8SM BKN006 OVC043 06/06 A2957 RMK AO1 PRESFR SLP021
SPECI CYNL 011126Z AUTO 10011G19KT 9SM BKN007 BKN024 OVC056 06/05 A2960 RMK AO1 SLP029
SPECI CYNL 011118Z AUTO 10012G21KT 8SM SCT007 BKN024 BKN043 06/05 A2959 RMK AO1 SLP028
SPECI CYNL 011103Z AUTO 10015KT 8SM FEW007 BKN043 06/05 A2959 RMK AO1 SLP028
METAR CYNL 011100Z AUTO 09012G19KT 8SM FEW017 BKN043 06/05 A2960 RMK AO1 SLP029
METAR CYNL 011000Z AUTO 09014KT 6SM FEW007 OVC072 06/06 A2961 RMK AO1 PRESFR SLP033
SPECI CYNL 010945Z AUTO 08012G20KT 6SM FEW008 SCT047 OVC072 07/06 A2962 RMK AO1 PRESFR SLP035
METAR CYNL 010900Z AUTO 08012G17KT 9SM BKN054 07/06 A2963 RMK AO1 PRESFR SLP040
METAR CYNL 010800Z AUTO 10009KT 7SM BKN066 07/06 A2966 RMK AO1 SLP049
METAR CYNL 010700Z AUTO 09009KT 9SM FEW082 07/06 A2968 RMK AO1 SLP056
METAR CYNL 010600Z AUTO 08011G16KT 9SM SCT076 07/05 A2968 RMK AO1 PRESFR SLP056
METAR CYNL 010500Z AUTO 10012G21KT 9SM CLR 08/03 A2971 RMK AO1 PRESFR SLP065
METAR CYNL 010400Z AUTO 11011G21KT 9SM FEW058 SCT084 10/02 A2974 RMK AO1 SLP072
METAR CYNL 010300Z AUTO 09010KT 9SM BKN082 OVC096 11/M01 A2975 RMK AO1 SLP073
METAR CYNL 010200Z AUTO 09012G18KT 9SM OVC096 12/M01 A2975 RMK AO1 SLP074
METAR CYNL 010100Z AUTO 09013G21KT 9SM SCT110 BKN130 12/M01 A2976 RMK AO1 PRESFR SLP082
METAR CYNL 010000Z AUTO 09013G21KT 9SM FEW094 OVC110 12/M01 A2979 RMK AO1 PRESFR SLP092
METAR CYNL 312300Z AUTO 08013KT 9SM BKN092 14/M01 A2981 RMK AO1 PRESFR SLP100
METAR CYNL 312200Z AUTO 08011G17KT 9SM OVC084 13/M01 A2986 RMK AO1 SLP120
METAR CYNL 312100Z AUTO 08009G16KT 9SM BKN090 13/M00 A2987 RMK AO1 PRESFR SLP125
METAR CYNL 312000Z AUTO 08009G15KT 9SM FEW084 12/01 A2990 RMK AO1 SLP135
METAR CYNL 311900Z AUTO 11010KT 9SM CLR 14/00 A2991 RMK AO1 SLP139
METAR CYNL 311800Z AUTO 12012KT 9SM FEW088 15/M01 A2992 RMK AO1 SLP139
METAR CYNL 311700Z AUTO 13009G15KT 9SM FEW094 15/M01 A2994 RMK AO1 PRESFR SLP143
METAR CYNL 311600Z AUTO 13009G17KT 9SM FEW098 15/M02 A2996 RMK AO1 PRESFR SLP149
METAR CYNL 311500Z AUTO 13007KT 9SM CLR 13/M02 A2998 RMK AO1 PRESFR SLP157
METAR CYNL 311400Z AUTO 14008KT 9SM CLR 11/M03 A3001 RMK AO1 PRESFR SLP166
METAR CYNL 311300Z AUTO 13008KT 9SM CLR 09/M04 A3003 RMK AO1 SLP172
METAR CYNL 311200Z AUTO 10006KT 9SM FEW180 06/M04 A3005 RMK AO1 SLP181
METAR CYNL 311100Z AUTO 09005KT 9SM CLR 03/M04 A3006 RMK AO1 PRESFR SLP188
METAR CYNL 311000Z AUTO 10004KT 9SM CLR 03/M05 A3009 RMK AO1 SLP196
METAR CYNL 310900Z AUTO 11003KT 9SM CLR 03/M04 A3009 RMK AO1 SLP198
METAR CYNL 310800Z AUTO 10005KT 9SM CLR 04/M04 A3010 RMK AO1 SLP198
METAR CYNL 310700Z AUTO 08006KT 9SM CLR 05/M05 A3009 RMK AO1 SLP196
METAR CYNL 310600Z AUTO 06005KT 9SM CLR 05/M04 A3010 RMK AO1 SLP198
METAR CYNL 310500Z AUTO 07005KT 9SM CLR 07/M04 A3010 RMK AO1 SLP198
METAR CYNL 310400Z AUTO 09005KT 9SM CLR 09/M05 A3010 RMK AO1 SLP198
METAR CYNL 310300Z AUTO 10007KT 9SM CLR 12/M05 A3011 RMK AO1 SLP198
METAR CYNL 310200Z AUTO 01006KT 9SM CLR 16/M09 A3011 RMK AO1 SLP195
METAR CYNL 310100Z AUTO 33005KT 9SM CLR 16/M09 A3012 RMK AO1 SLP199
METAR CYNL 310000Z AUTO 35003KT 9SM CLR 17/M08 A3012 RMK AO1 SLP204
METAR CYNL 302300Z AUTO 32007KT 290V000 9SM CLR 17/M08 A3013 RMK AO1 SLP210
METAR CYNL 302200Z AUTO 34012G16KT 300V020 9SM CLR 17/M08 A3014 RMK AO1 SLP217
METAR CYNL 302100Z AUTO 33005KT 9SM CLR 16/M07 A3014 RMK AO1 SLP220
METAR CYNL 302000Z AUTO 33009G16KT 9SM CLR 16/M07 A3015 RMK AO1 SLP222
METAR CYNL 301900Z AUTO 31006G15KT 9SM CLR 15/M07 A3015 RMK AO1 SLP225
METAR CYNL 301800Z AUTO 34009G16KT 9SM CLR 14/M06 A3016 RMK AO1 SLP227
METAR CYNL 301700Z AUTO 28006KT 9SM CLR 13/M05 A3017 RMK AO1 SLP230
METAR CYNL 301600Z AUTO 28011G16KT 9SM CLR 13/M06 A3019 RMK AO1 SLP235
METAR CYNL 301500Z AUTO 29006KT 9SM CLR 12/M06 A3020 RMK AO1 SLP237
METAR CYNL 301400Z AUTO 25003KT 9SM CLR 10/M04 A3021 RMK AO1 SLP241
METAR CYNL 301300Z AUTO 23004KT 9SM CLR 07/M04 A3023 RMK AO1 SLP247
METAR CYNL 301200Z AUTO 25004KT 9SM CLR 03/M04 A3023 RMK AO1 SLP253
METAR CYNL 301100Z AUTO 22003KT 9SM CLR 00/M03 A3024 RMK AO1 SLP258
METAR CYNL 301000Z AUTO 23002KT 9SM CLR M02/M03 A3025 RMK AO1 SLP262
METAR CYNL 300900Z AUTO 23003KT 9SM CLR M01/M03 A3026 RMK AO1 SLP266
METAR CYNL 300800Z AUTO 25002KT 9SM CLR M01/M03 A3027 RMK AO1 SLP268
METAR CYNL 300700Z AUTO 24002KT 9SM CLR M01/M03 A3027 RMK AO1 SLP268
METAR CYNL 300600Z AUTO 20002KT 9SM CLR 01/M03 A3027 RMK AO1 SLP270
METAR CYNL 300500Z AUTO 00000KT 9SM CLR 02/M03 A3028 RMK AO1 SLP271
METAR CYNL 300400Z AUTO 12003KT 9SM CLR 04/M05 A3028 RMK AO1 SLP270
METAR CYNL 300300Z AUTO 33003KT 9SM CLR 08/M08 A3027 RMK AO1 SLP265
METAR CYNL 300200Z AUTO 34006KT 9SM CLR 09/M08 A3027 RMK AO1 SLP264
METAR CYNL 300100Z AUTO 32006KT 9SM CLR 10/M07 A3028 RMK AO1 SLP269
METAR CYNL 300000Z AUTO 34007KT 9SM CLR 10/M08 A3028 RMK AO1 SLP273
METAR CYNL 292300Z AUTO 30006KT 9SM CLR 10/M08 A3028 RMK AO1 SLP274
METAR CYNL 292200Z AUTO 33008KT 9SM CLR 10/M07 A3028 RMK AO1 SLP276
METAR CYNL 292100Z AUTO 33007KT 9SM CLR 10/M07 A3028 RMK AO1 SLP276
METAR CYNL 292000Z AUTO 35008G19KT 9SM CLR 10/M05 A3028 RMK AO1 SLP275
SPECI CYNL 291904Z AUTO 00012KT 330V030 9SM CLR 09/M05 A3028 RMK AO1 WSHFT (19)04 SLP276
METAR CYNL 291900Z AUTO 02012KT 350V050 9SM CLR 09/M05 A3028 RMK AO1 SLP275
METAR CYNL 291800Z AUTO 03008KT 000V070 9SM CLR 08/M04 A3028 RMK AO1 SLP278
METAR CYNL 291700Z AUTO 07006KT 9SM CLR 07/M02 A3029 RMK AO1 SLP279
METAR CYNL 291600Z AUTO 07007KT 030V110 9SM CLR 06/M03 A3029 RMK AO1 SLP281
METAR CYNL 291500Z AUTO 05004KT 9SM CLR 05/M03 A3030 RMK AO1 SLP280
METAR CYNL 291400Z AUTO 08004KT 9SM CLR 03/M03 A3030 RMK AO1 SLP282
METAR CYNL 291300Z AUTO 08004KT 9SM CLR 01/M04 A3031 RMK AO1 SLP283
METAR CYNL 291200Z AUTO 07004KT 9SM CLR M01/M04 A3030 RMK AO1 SLP283
METAR CYNL 291100Z AUTO 05004KT 9SM CLR M02/M04 A3030 RMK AO1 SLP282
METAR CYNL 291000Z AUTO 05004KT 9SM CLR M03/M05 A3029 RMK AO1 SLP282
METAR CYNL 290900Z AUTO 00000KT 9SM CLR M03/M04 A3029 RMK AO1 SLP283
METAR CYNL 290800Z AUTO 04003KT 9SM CLR M02/M03 A3029 RMK AO1 SLP283
METAR CYNL 290700Z AUTO 06003KT 9SM CLR M02/M03 A3029 RMK AO1 SLP282
METAR CYNL 290600Z AUTO 00000KT 9SM CLR M01/M03 A3029 RMK AO1 SLP286
METAR CYNL 290500Z AUTO 00000KT 9SM CLR 00/M02 A3029 RMK AO1 SLP283
METAR CYNL 290400Z AUTO 00000KT 9SM CLR 03/M03 A3028 RMK AO1 SLP278
METAR CYNL 290300Z AUTO 13003KT 9SM CLR 05/M02 A3027 RMK AO1 SLP274
METAR CYNL 290200Z AUTO 06003KT 9SM CLR 08/M06 A3027 RMK AO1 SLP273
METAR CYNL 290100Z AUTO 07004KT 9SM CLR 08/M05 A3027 RMK AO1 SLP273
METAR CYNL 290000Z AUTO 05004KT 9SM CLR 08/M04 A3027 RMK AO1 SLP275
METAR CYNL 282300Z AUTO 05004KT 9SM CLR 08/M05 A3027 RMK AO1 SLP274
METAR CYNL 282200Z AUTO 02008KT 340V070 9SM FEW043 07/M03 A3027 RMK AO1 SLP276
METAR CYNL 282100Z AUTO 04007KT 000V090 9SM CLR 06/M03 A3027 RMK AO1 SLP277
METAR CYNL 282000Z AUTO 05006KT 9SM FEW028 05/M03 A3027 RMK AO1 SLP278
METAR CYNL 281900Z AUTO 02004KT 9SM SCT022 03/M02 A3027 RMK AO1 SLP279
SPECI CYNL 281836Z AUTO 33004KT 9SM SCT020 03/M02 A3027 RMK AO1 SLP279
SPECI CYNL 281830Z AUTO 35002KT 9SM BKN020 03/M01 A3027 RMK AO1 SLP278
SPECI CYNL 281802Z AUTO 00004KT 9SM SCT018 02/M02 A3027 RMK AO1 SLP279
METAR CYNL 281800Z AUTO 01006KT 9SM BKN018 02/M02 A3027 RMK AO1 SLP279
SPECI CYNL 281702Z AUTO 35006KT 300V040 9SM BKN016 01/00 A3027 RMK AO1 SLP279
METAR CYNL 281700Z AUTO 35006KT 300V040 9SM SCT016 01/00 A3026 RMK AO1 SLP279
SPECI CYNL 281646Z AUTO 01006KT 9SM SCT014 01/00 A3026 RMK AO1 SLP278
SPECI CYNL 281644Z AUTO 00006KT 9SM SCT014 BKN017 01/M00 A3026 RMK AO1 SLP278
METAR CYNL 281600Z AUTO 34005KT 9SM BKN012 01/00 A3026 RMK AO1 SLP275
SPECI CYNL 281522Z AUTO 00005KT 9SM BKN010 00/M00 A3025 RMK AO1 SLP275
SPECI CYNL 281520Z AUTO 00006KT 9SM BKN009 00/M00 A3025 RMK AO1 SLP275
SPECI CYNL 281519Z AUTO 00005KT 9SM SCT009 BKN011 00/M00 A3025 RMK AO1 SLP275
SPECI CYNL 281514Z AUTO 00005KT 9SM BKN009 00/M00 A3025 RMK AO1 SLP274
SPECI CYNL 281512Z AUTO 01004KT 9SM SCT008 BKN011 00/M01 A3025 RMK AO1 SLP275
METAR CYNL 281500Z AUTO 35003KT 9SM BKN008 OVC010 M00/M01 A3025 RMK AO1 SLP274
METAR CYNL 281400Z AUTO 02006KT 9SM BKN008 OVC062 M01/M02 A3024 RMK AO1 SLP271
METAR CYNL 281300Z AUTO 00006KT 9SM BKN007 M02/M03 A3022 RMK AO1 SLP266
SPECI CYNL 281229Z AUTO 01006KT 9SM BKN008 OVC045 M02/M03 A3022 RMK AO1 SLP264
SPECI CYNL 281209Z AUTO 01006KT 9SM SCT009 OVC043 M03/M03 A3021 RMK AO1 SLP264
METAR CYNL 281200Z AUTO 00004KT 9SM BKN009 BKN044 M03/M03 A3021 RMK AO1 SLP263
SPECI CYNL 281120Z AUTO 00005KT 8SM BKN008 M03/M03 A3020 RMK AO1 SLP260
SPECI CYNL 281116Z AUTO 00005KT 8SM SCT008 BKN012 M03/M03 A3020 RMK AO1 SLP260
SPECI CYNL 281114Z AUTO 00006KT 9SM SCT008 BKN016 M03/M03 A3020 RMK AO1 SLP259
SPECI CYNL 281112Z AUTO 01006KT 9SM SCT008 M03/M03 A3020 RMK AO1 SLP259
SPECI CYNL 281110Z AUTO 01008KT 9SM SCT008 BKN016 M03/M03 A3020 RMK AO1 SLP259
SPECI CYNL 281105Z AUTO 01006KT 9SM SCT008 BKN012 M03/M03 A3020 RMK AO1 SLP259
METAR CYNL 281100Z AUTO 00006KT 6SM VV009 M03/M03 A3020 RMK AO1 SLP259
SPECI CYNL 281059Z AUTO 00006KT 5SM VV009 M03/M03 A3020 RMK AO1 SLP259
SPECI CYNL 281049Z AUTO 35006KT 5SM VV010 M03/M03 A3020 RMK AO1 SLP259
SPECI CYNL 281046Z AUTO 35007KT 4SM VV009 M03/M03 A3020 RMK AO1 SLP259
SPECI CYNL 281042Z AUTO 00005KT 3SM SCT008 BKN010 M03/M03 A3020 RMK AO1 SLP258
SPECI CYNL 281037Z AUTO 35007KT 5SM BKN008 M03/M03 A3020 RMK AO1 SLP258
SPECI CYNL 281017Z AUTO 01008KT 4SM SCT007 BKN011 M03/M03 A3019 RMK AO1 SLP254
SPECI CYNL 281014Z AUTO 00008KT 4SM VV009 M03/M03 A3018 RMK AO1 SLP254
SPECI CYNL 281009Z AUTO 00007KT 3SM VV012 M03/M03 A3018 RMK AO1 SLP253
SPECI CYNL 281002Z AUTO 00008KT 2SM VV010 M03/M03 A3018 RMK AO1 SLP253
METAR CYNL 281000Z AUTO 01008KT 1 3/4SM VV009 M03/M03 A3018 RMK AO1 SLP253
SPECI CYNL 280959Z AUTO 01007KT 1 1/2SM VV009 M03/M03 A3018 RMK AO1 SLP253
SPECI CYNL 280956Z AUTO 00009KT 1 1/2SM FEW007 OVC010 M03/M03 A3018 RMK AO1 SLP253
SPECI CYNL 280955Z AUTO 35008KT 1 1/4SM FEW006 OVC009 M03/M03 A3018 RMK AO1 SLP253
SPECI CYNL 280947Z AUTO 00007KT 1 1/2SM VV009 M03/M03 A3018 RMK AO1 SLP252
SPECI CYNL 280946Z AUTO 00007KT 1 1/2SM VV010 M03/M03 A3018 RMK AO1 SLP252
SPECI CYNL 280944Z AUTO 00007KT 1 1/2SM VV009 M03/M03 A3018 RMK AO1 SLP251
SPECI CYNL 280941Z AUTO 35007KT 1 1/4SM VV009 M03/M03 A3018 RMK AO1 SLP251
SPECI CYNL 280935Z AUTO 35007KT 1 1/4SM VV010 M03/M03 A3018 RMK AO1 SLP251
SPECI CYNL 280934Z AUTO 35006KT 1 1/2SM VV011 M03/M03 A3017 RMK AO1 SLP250
SPECI CYNL 280931Z AUTO 35007KT 1 1/4SM VV012 M03/M03 A3017 RMK AO1 SLP250
SPECI CYNL 280930Z AUTO 00006KT 1 3/4SM VV012 M02/M03 A3017 RMK AO1 SLP250
SPECI CYNL 280926Z AUTO 00007KT 2 1/2SM BKN008 BKN012 OVC015 M02/M03 A3017 RMK AO1 SLP250
SPECI CYNL 280925Z AUTO 00006KT 3SM BKN007 BKN012 OVC015 M02/M03 A3017 RMK AO1 SLP249
SPECI CYNL 280920Z AUTO 00008KT 2 1/2SM BKN008 BKN010 OVC015 M02/M03 A3017 RMK AO1 SLP249
SPECI CYNL 280918Z AUTO 35007KT 3SM BKN008 OVC010 M02/M03 A3017 RMK AO1 SLP248
SPECI CYNL 280915Z AUTO 35005KT 2SM VV009 M02/M03 A3017 RMK AO1 SLP248
SPECI CYNL 280914Z AUTO 35006KT 1 3/4SM BKN008 BKN010 OVC016 M02/M03 A3017 RMK AO1 SLP248
SPECI CYNL 280913Z AUTO 00006KT 1 1/2SM VV010 M02/M03 A3017 RMK AO1 SLP248
SPECI CYNL 280909Z AUTO 00007KT 1 1/4SM BKN008 OVC016 M02/M03 A3017 RMK AO1 SLP248
SPECI CYNL 280908Z AUTO 00006KT 1 1/2SM BKN008 OVC016 M02/M03 A3017 RMK AO1 SLP247
SPECI CYNL 280907Z AUTO 01005KT 2SM BKN007 OVC016 M02/M03 A3017 RMK AO1 SLP247
SPECI CYNL 280903Z AUTO 00008KT 3SM BKN007 OVC009 M02/M03 A3017 RMK AO1 SLP247
SPECI CYNL 280902Z AUTO 00008KT 2 1/2SM BKN007 OVC009 M02/M03 A3017 RMK AO1 SLP247
METAR CYNL 280900Z AUTO 00007KT 4SM OVC008 M02/M03 A3016 RMK AO1 SLP246
SPECI CYNL 280834Z AUTO 00008KT 7SM BKN008 BKN014 M02/M03 A3016 RMK AO1 SLP245
SPECI CYNL 280833Z AUTO 00009KT 5SM SCT008 BKN010 BKN014 M02/M03 A3016 RMK AO1 SLP245
SPECI CYNL 280829Z AUTO 01007KT 3SM VV009 M02/M03 A3016 RMK AO1 SLP244
SPECI CYNL 280828Z AUTO 00008KT 2 1/2SM VV009 M02/M03 A3016 RMK AO1 SLP244
SPECI CYNL 280823Z AUTO 00009KT 2 1/2SM VV013 M02/M02 A3016 RMK AO1 SLP244
SPECI CYNL 280818Z AUTO 00007KT 5SM SCT008 BKN010 M02/M02 A3016 RMK AO1 SLP245
SPECI CYNL 280809Z AUTO 00008KT 5SM BKN008 OVC012 M02/M02 A3016 RMK AO1 SLP244
SPECI CYNL 280808Z AUTO 00009KT 5SM VV010 M02/M02 A3016 RMK AO1 SLP244
SPECI CYNL 280804Z AUTO 00007KT 3SM VV009 M02/M02 A3016 RMK AO1 SLP245
SPECI CYNL 280802Z AUTO 00008KT 2SM VV008 M02/M02 A3016 RMK AO1 SLP244
METAR CYNL 280800Z AUTO 00008KT 1 3/4SM VV008 M02/M02 A3016 RMK AO1 SLP244
SPECI CYNL 280759Z AUTO 00008KT 1 1/2SM VV008 M02/M02 A3016 RMK AO1 SLP244
SPECI CYNL 280756Z AUTO 00008KT 1SM VV008 M02/M02 A3016 RMK AO1 SLP244
SPECI CYNL 280754Z AUTO 00008KT 3/4SM VV008 M02/M02 A3016 RMK AO1 SLP244
SPECI CYNL 280752Z AUTO 00008KT 5/8SM VV008 M02/M02 A3016 RMK AO1 SLP244
SPECI CYNL 280750Z AUTO 00005KT 3/4SM VV009 M02/M02 A3016 RMK AO1 SLP243
SPECI CYNL 280746Z AUTO 35008KT 5/8SM VV009 M02/M02 A3016 RMK AO1 SLP243
SPECI CYNL 280740Z AUTO 00006KT 1SM VV009 M02/M02 A3015 RMK AO1 SLP242
SPECI CYNL 280727Z AUTO 00010KT 1 1/4SM SCT007 BKN011 OVC015 M02/M02 A3015 RMK AO1 SLP241
SPECI CYNL 280726Z AUTO 35010KT 1 1/2SM SCT007 BKN011 OVC016 M02/M02 A3015 RMK AO1 SLP241
SPECI CYNL 280723Z AUTO 00007KT 2 1/2SM SCT007 OVC012 M02/M02 A3015 RMK AO1 SLP241
SPECI CYNL 280720Z AUTO 35009KT 3SM FEW007 OVC012 M02/M02 A3015 RMK AO1 SLP240
SPECI CYNL 280715Z AUTO 00007KT 2 1/2SM FEW007 OVC012 M02/M02 A3015 RMK AO1 SLP240
SPECI CYNL 280713Z AUTO 00006KT 2SM VV012 M02/M02 A3015 RMK AO1 SLP239
SPECI CYNL 280709Z AUTO 00008KT 1 3/4SM VV012 M02/M02 A3015 RMK AO1 SLP239
SPECI CYNL 280706Z AUTO 00009KT 2 1/2SM VV011 M02/M02 A3014 RMK AO1 SLP239
SPECI CYNL 280705Z AUTO 00008KT 3SM FEW007 BKN012 OVC018 M02/M02 A3014 RMK AO1 SLP239
METAR CYNL 280700Z AUTO 00006KT 2 1/2SM SCT007 BKN013 OVC018 M02/M02 A3014 RMK AO1 SLP239
SPECI CYNL 280656Z AUTO 00007KT 2 1/2SM FEW007 SCT010 BKN013 M02/M02 A3014 RMK AO1 SLP239
SPECI CYNL 280647Z AUTO 00006KT 4SM FEW008 SCT010 BKN013 M02/M02 A3014 RMK AO1 SLP238
SPECI CYNL 280644Z AUTO 01007KT 4SM VV015 M02/M02 A3014 RMK AO1 SLP237
SPECI CYNL 280639Z AUTO 00007KT 5SM VV010 M02/M02 A3014 RMK AO1 SLP237
SPECI CYNL 280638Z AUTO 01007KT 5SM VV009 M02/M02 A3014 RMK AO1 SLP237
SPECI CYNL 280630Z AUTO 01006KT 4SM SCT008 BKN010 BKN020 M02/M02 A3014 RMK AO1 SLP236
SPECI CYNL 280628Z AUTO 01006KT 4SM VV010 M02/M02 A3013 RMK AO1 SLP236
SPECI CYNL 280614Z AUTO 01008KT 6SM OVC009 M02/M02 A3013 RMK AO1 SLP234
SPECI CYNL 280613Z AUTO 00007KT 6SM FEW007 OVC010 M02/M02 A3013 RMK AO1 SLP234
SPECI CYNL 280605Z AUTO 00010KT 3SM BKN008 OVC010 M02/M02 A3013 RMK AO1 SLP233
METAR CYNL 280600Z AUTO 00008KT 2 1/2SM VV009 M02/M02 A3013 RMK AO1 SLP233
SPECI CYNL 280559Z AUTO 01008KT 2 1/2SM VV009 M02/M02 A3013 RMK AO1 SLP233
SPECI CYNL 280531Z AUTO 01009KT 4SM BKN008 OVC012 M02/M02 A3012 RMK AO1 SLP232
SPECI CYNL 280511Z AUTO 00009KT 3SM SCT008 OVC012 M02/M02 A3012 RMK AO1 SLP231
SPECI CYNL 280506Z AUTO 00008KT 2SM SCT008 BKN011 OVC018 M02/M02 A3012 RMK AO1 SLP230
SPECI CYNL 280504Z AUTO 00009KT 1 3/4SM SCT007 BKN011 OVC018 M02/M02 A3012 RMK AO1 SLP230
SPECI CYNL 280501Z AUTO 00008KT 2 1/2SM SCT008 BKN011 OVC018 M02/M02 A3012 RMK AO1 SLP230
METAR CYNL 280500Z AUTO 00008KT 3SM SCT008 BKN011 OVC018 M02/M02 A3012 RMK AO1 SLP229
SPECI CYNL 280452Z AUTO 00008KT 4SM SCT008 BKN010 BKN012 M02/M02 A3011 RMK AO1 PRESRR SLP229
SPECI CYNL 280448Z AUTO 00009KT 3SM BKN008 BKN013 OVC018 M02/M02 A3011 RMK AO1 PRESRR SLP228
SPECI CYNL 280441Z AUTO 00010KT 4SM SCT008 BKN011 OVC018 M01/M02 A3011 RMK AO1 PRESRR SLP228
SPECI CYNL 280432Z AUTO 35009KT 5SM VV009 M01/M02 A3011 RMK AO1 PRESRR SLP227
SPECI CYNL 280421Z AUTO 00007KT 3SM FEW006 BKN011 OVC015 M01/M02 A3011 RMK AO1 PRESRR SLP226
SPECI CYNL 280415Z AUTO 01009G15KT 2 1/2SM FEW007 SCT009 BKN011 M01/M02 A3010 RMK AO1 PRESRR SLP225
SPECI CYNL 280408Z AUTO 01009G15KT 3SM VV011 M01/M02 A3010 RMK AO1 PRESRR SLP224
SPECI CYNL 280405Z AUTO 00011G17KT 2SM VV011 M01/M02 A3010 RMK AO1 PRESRR SLP224
METAR CYNL 280400Z AUTO 00010G17KT 1 3/4SM VV012 M01/M02 A3010 RMK AO1 PRESRR SLP223
SPECI CYNL 280356Z AUTO 00008KT 1 3/4SM FEW007 SCT009 OVC013 M01/M02 A3010 RMK AO1 PRESRR SLP222
SPECI CYNL 280352Z AUTO 00008KT 2SM SCT007 OVC013 M01/M01 A3010 RMK AO1 PRESRR SLP222
SPECI CYNL 280351Z AUTO 00008KT 2SM BKN007 OVC013 M01/M02 A3010 RMK AO1 PRESRR SLP222
SPECI CYNL 280347Z AUTO 01008KT 2 1/2SM SCT007 OVC011 M01/M02 A3009 RMK AO1 PRESRR SLP221
SPECI CYNL 280338Z AUTO 01010G16KT 5SM FEW007 BKN012 OVC015 M01/M01 A3009 RMK AO1 PRESRR SLP220
SPECI CYNL 280335Z AUTO 01011G16KT 3SM VV013 M01/M01 A3009 RMK AO1 PRESRR SLP220
SPECI CYNL 280331Z AUTO 01009KT 2SM VV012 M01/M01 A3009 RMK AO1 PRESRR SLP219
SPECI CYNL 280328Z AUTO 00010KT 1 1/2SM VV012 M01/M01 A3009 RMK AO1 PRESRR SLP219
SPECI CYNL 280326Z AUTO 01007KT 1 1/4SM VV012 M01/M01 A3009 RMK AO1 PRESRR SLP219
SPECI CYNL 280324Z AUTO 01007KT 1 3/4SM VV013 M01/M01 A3009 RMK AO1 PRESRR SLP218
SPECI CYNL 280323Z AUTO 01008KT 2 1/2SM VV013 M01/M01 A3009 RMK AO1 PRESRR SLP218
SPECI CYNL 280322Z AUTO 01008KT 3SM VV013 M01/M01 A3009 RMK AO1 PRESRR SLP218
SPECI CYNL 280320Z AUTO 01007KT 2SM VV012 M01/M01 A3009 RMK AO1 PRESRR SLP218
SPECI CYNL 280318Z AUTO 02007KT 1 3/4SM VV012 M01/M01 A3008 RMK AO1 PRESRR SLP218
SPECI CYNL 280315Z AUTO 01008KT 2 1/2SM VV013 M01/M01 A3008 RMK AO1 PRESRR SLP217
SPECI CYNL 280310Z AUTO 01009KT 3SM FEW008 SCT010 BKN012 M01/M01 A3008 RMK AO1 PRESRR SLP217
SPECI CYNL 280307Z AUTO 01010KT 2 1/2SM SCT009 BKN013 OVC016 M01/M01 A3008 RMK AO1 PRESRR SLP216
METAR CYNL 280300Z AUTO 02010G16KT 5SM SCT008 BKN012 BKN016 M01/M01 A3008 RMK AO1 PRESRR SLP215
SPECI CYNL 280259Z AUTO 01010G16KT 5SM SCT008 BKN012 BKN016 M01/M01 A3008 RMK AO1 PRESRR SLP215
SPECI CYNL 280257Z AUTO 01010G16KT 6SM VV009 M01/M01 A3008 RMK AO1 PRESRR SLP214
SPECI CYNL 280251Z AUTO 00010G18KT 4SM FEW008 BKN013 OVC016 M01/M01 A3007 RMK AO1 PRESRR SLP214
SPECI CYNL 280249Z AUTO 01011G18KT 4SM FEW007 SCT012 BKN016 M01/M01 A3007 RMK AO1 PRESRR SLP213
SPECI CYNL 280248Z AUTO 01010G18KT 4SM FEW008 BKN013 BKN016 M01/M01 A3007 RMK AO1 PRESRR SLP213
SPECI CYNL 280244Z AUTO 01011G18KT 4SM VV015 M01/M01 A3007 RMK AO1 PRESRR SLP213
SPECI CYNL 280237Z AUTO 01009KT 4SM SCT008 BKN013 OVC038 M01/M01 A3007 RMK AO1 PRESRR SLP212
SPECI CYNL 280214Z AUTO 01008KT 3SM VV009 M01/M01 A3006 RMK AO1 PRESRR SLP209
SPECI CYNL 280208Z AUTO 01010KT 2 1/2SM VV009 M01/M01 A3006 RMK AO1 PRESRR SLP208
SPECI CYNL 280207Z AUTO 01009KT 2 1/2SM SCT008 OVC011 M00/M01 A3006 RMK AO1 PRESRR SLP208
SPECI CYNL 280205Z AUTO 00008KT 2SM VV009 M00/M01 A3006 RMK AO1 PRESRR SLP208
SPECI CYNL 280204Z AUTO 02009KT 2SM VV010 M00/M01 A3006 RMK AO1 PRESRR SLP208
SPECI CYNL 280202Z AUTO 01011KT 1 1/2SM FEW007 OVC011 M00/M01 A3005 RMK AO1 PRESRR SLP207
SPECI CYNL 280201Z AUTO 01009KT 1 1/4SM FEW007 OVC011 M00/M01 A3005 RMK AO1 PRESRR SLP207
METAR CYNL 280200Z AUTO 01009G16KT 1 1/4SM VV010 M00/M01 A3006 RMK AO1 PRESRR SLP207
SPECI CYNL 280157Z AUTO 01008G16KT 1 3/4SM VV010 M00/M01 A3005 RMK AO1 PRESRR SLP206
SPECI CYNL 280150Z AUTO 01012KT 2SM VV012 M00/M01 A3005 RMK AO1 PRESRR SLP205
SPECI CYNL 280148Z AUTO 00011KT 1 3/4SM VV012 M00/M01 A3005 RMK AO1 PRESRR SLP205
SPECI CYNL 280146Z AUTO 01009KT 2SM VV012 M00/M01 A3005 RMK AO1 PRESRR SLP205
SPECI CYNL 280145Z AUTO 01009KT 1 3/4SM VV011 M00/M01 A3005 RMK AO1 PRESRR SLP205
SPECI CYNL 280141Z AUTO 01010KT 2SM VV011 M00/M01 A3005 RMK AO1 PRESRR SLP204
SPECI CYNL 280137Z AUTO 01009G16KT 1 3/4SM FEW007 OVC010 M00/M01 A3005 RMK AO1 PRESRR SLP204
SPECI CYNL 280135Z AUTO 01009G16KT 1 3/4SM VV011 M00/M01 A3005 RMK AO1 PRESRR SLP204
SPECI CYNL 280133Z AUTO 00008G16KT 2SM VV011 M00/M01 A3005 RMK AO1 PRESRR SLP204
SPECI CYNL 280124Z AUTO 02009G15KT 1 3/4SM SCT007 OVC010 M00/M01 A3004 RMK AO1 PRESRR SLP202
SPECI CYNL 280122Z AUTO 02009G15KT 2 1/2SM BKN008 OVC011 M00/M01 A3004 RMK AO1 PRESRR SLP202
SPECI CYNL 280121Z AUTO 02010G15KT 3SM SCT008 OVC010 M00/M01 A3004 RMK AO1 PRESRR SLP202
SPECI CYNL 280118Z AUTO 02009G15KT 4SM BKN008 OVC011 M00/M01 A3004 RMK AO1 PRESRR SLP201
SPECI CYNL 280116Z AUTO 02009G15KT 3SM VV010 M00/M01 A3004 RMK AO1 PRESRR SLP201
SPECI CYNL 280111Z AUTO 02012KT 7SM FEW006 BKN008 BKN011 M00/M01 A3004 RMK AO1 PRESRR SLP200
SPECI CYNL 280109Z AUTO 02011KT 7SM FEW006 SCT008 BKN011 M00/M01 A3004 RMK AO1 PRESRR SLP200
SPECI CYNL 280108Z AUTO 02009KT 8SM FEW006 BKN009 BKN011 M00/M01 A3004 RMK AO1 PRESRR SLP200
SPECI CYNL 280102Z AUTO 02010G16KT 3SM SCT008 BKN010 OVC032 M00/M01 A3003 RMK AO1 PRESRR SLP199
METAR CYNL 280100Z AUTO 01011KT 2 1/2SM FEW007 BKN010 BKN012 M00/M01 A3003 RMK AO1 PRESRR SLP199
SPECI CYNL 280058Z AUTO 02011G16KT 3SM FEW006 SCT009 BKN012 M00/M01 A3003 RMK AO1 PRESRR SLP198
SPECI CYNL 280056Z AUTO 01010G16KT 3SM FEW006 BKN009 BKN012 M00/M01 A3003 RMK AO1 PRESRR SLP198
SPECI CYNL 280054Z AUTO 01007KT 2SM FEW006 BKN009 BKN012 M00/M01 A3003 RMK AO1 PRESRR SLP198
SPECI CYNL 280053Z AUTO 02009KT 1 3/4SM FEW006 SCT009 BKN012 M00/M01 A3003 RMK AO1 PRESRR SLP198
SPECI CYNL 280052Z AUTO 02009KT 1 1/2SM VV009 M00/M01 A3003 RMK AO1 PRESRR SLP198
SPECI CYNL 280044Z AUTO 02010KT 1 1/4SM FEW009 BKN013 OVC032 M00/M01 A3002 RMK AO1 PRESRR SLP196
SPECI CYNL 280043Z AUTO 02011KT 1 3/4SM FEW009 BKN013 OVC032 M00/M01 A3002 RMK AO1 PRESRR SLP196
SPECI CYNL 280042Z AUTO 02010KT 3SM FEW009 BKN013 OVC032 M00/M01 A3002 RMK AO1 PRESRR SLP196
SPECI CYNL 280035Z AUTO 02009KT 5SM FEW009 SCT013 BKN018 M00/M01 A3002 RMK AO1 PRESRR SLP195
SPECI CYNL 280034Z AUTO 02010KT 4SM SCT012 BKN018 OVC031 M00/M01 A3002 RMK AO1 PRESRR SLP195
SPECI CYNL 280033Z AUTO 02011KT 2 1/2SM FEW009 BKN013 OVC031 M00/M01 A3002 RMK AO1 PRESRR SLP194
SPECI CYNL 280031Z AUTO 02010KT 2 1/2SM VV013 M00/M01 A3002 RMK AO1 PRESRR SLP194
SPECI CYNL 280030Z AUTO 02011KT 1 3/4SM VV012 M00/M01 A3002 RMK AO1 PRESRR SLP194
SPECI CYNL 280027Z AUTO 02010G16KT 1 1/4SM VV013 M00/M01 A3002 RMK AO1 PRESRR SLP194
SPECI CYNL 280025Z AUTO 03011G18KT 1 3/4SM VV013 M00/M01 A3001 RMK AO1 PRESRR SLP193
SPECI CYNL 280022Z AUTO 03012G18KT 2 1/2SM SCT012 BKN017 OVC031 M00/M01 A3001 RMK AO1 PRESRR SLP192
SPECI CYNL 280006Z AUTO 01011G18KT 7SM SCT009 BKN015 OVC018 M00/M01 A3000 RMK AO1 PRESRR SLP189
SPECI CYNL 280005Z AUTO 01011G18KT 4SM SCT008 BKN011 BKN015 M00/M01 A3000 RMK AO1 PRESRR SLP189
SPECI CYNL 280003Z AUTO 01010G18KT 2 1/2SM SCT008 BKN011 OVC016 M00/M01 A3000 RMK AO1 PRESRR SLP189
METAR CYNL 280000Z AUTO 02009G18KT 5SM SCT008 BKN011 BKN016 M00/M01 A3000 RMK AO1 PRESRR SLP189
SPECI CYNL 272344Z AUTO 02009KT 4SM SCT008 BKN011 BKN014 M00/M01 A3000 RMK AO1 PRESRR SLP186
SPECI CYNL 272343Z AUTO 02008KT 3SM VV011 M00/M01 A3000 RMK AO1 PRESRR SLP186
SPECI CYNL 272342Z AUTO 02008KT 2SM VV010 M00/M01 A3000 RMK AO1 PRESRR SLP186
SPECI CYNL 272339Z AUTO 02009KT 1SM VV008 M00/M01 A2999 RMK AO1 PRESRR SLP186
SPECI CYNL 272338Z AUTO 01009KT 3/4SM VV008 M00/M01 A2999 RMK AO1 PRESRR SLP186
SPECI CYNL 272336Z AUTO 02008G15KT 5/8SM VV009 M00/M01 A2999 RMK AO1 PRESRR SLP186
SPECI CYNL 272334Z AUTO 02009G15KT 5/8SM VV011 M00/M01 A2999 RMK AO1 PRESRR SLP185
SPECI CYNL 272332Z AUTO 02011KT 1 1/4SM VV012 M00/M01 A2999 RMK AO1 PRESRR SLP185
SPECI CYNL 272329Z AUTO 02011G16KT 1 3/4SM FEW008 SCT011 BKN014 M00/M01 A2999 RMK AO1 PRESRR SLP184
SPECI CYNL 272328Z AUTO 03011KT 2SM SCT010 BKN014 BKN019 M00/M01 A2999 RMK AO1 PRESRR SLP184
SPECI CYNL 272316Z AUTO 02011G16KT 5SM FEW009 BKN011 BKN020 M00/M01 A2998 RMK AO1 PRESRR SLP182
SPECI CYNL 272314Z AUTO 01012KT 3SM VV014 M00/M01 A2998 RMK AO1 PRESRR SLP182
SPECI CYNL 272313Z AUTO 02012KT 1 1/2SM VV013 M00/M01 A2998 RMK AO1 PRESRR SLP182
SPECI CYNL 272310Z AUTO 02009G16KT 1 1/4SM FEW008 BKN012 OVC019 M00/M01 A2998 RMK AO1 PRESRR SLP182
SPECI CYNL 272308Z AUTO 02010G16KT 1 1/2SM BKN010 OVC019 M00/M01 A2998 RMK AO1 PRESRR SLP181
SPECI CYNL 272306Z AUTO 01010G16KT 1 3/4SM BKN009 BKN013 OVC019 M00/M01 A2998 RMK AO1 PRESRR SLP181
SPECI CYNL 272305Z AUTO 01010G16KT 2 1/2SM BKN009 BKN014 OVC019 M00/M01 A2998 RMK AO1 PRESRR SLP181
METAR CYNL 272300Z AUTO 03011KT 7SM SCT009 BKN011 BKN018 M00/M01 A2998 RMK AO1 PRESRR SLP179
SPECI CYNL 272251Z AUTO 02010KT 5SM SCT009 BKN012 BKN017 M00/M01 A2997 RMK AO1 PRESRR SLP178
SPECI CYNL 272250Z AUTO 02009KT 3SM VV010 M00/M01 A2997 RMK AO1 PRESRR SLP178
SPECI CYNL 272249Z AUTO 02009KT 1 1/2SM VV011 M00/M01 A2997 RMK AO1 PRESRR SLP178
SPECI CYNL 272246Z AUTO 03010KT 1 1/4SM SCT009 BKN012 OVC026 M00/M01 A2997 RMK AO1 PRESRR SLP177
SPECI CYNL 272244Z AUTO 02010KT 1 3/4SM SCT009 BKN012 OVC025 M00/M01 A2997 RMK AO1 PRESRR SLP177
SPECI CYNL 272242Z AUTO 03010KT 5SM SCT009 BKN012 OVC028 00/M01 A2997 RMK AO1 PRESRR SLP177
SPECI CYNL 272230Z AUTO 02009G16KT 4SM FEW006 SCT009 BKN019 M00/M01 A2996 RMK AO1 PRESRR SLP175
SPECI CYNL 272226Z AUTO 02012KT 5SM FEW007 SCT010 OVC025 M00/M01 A2996 RMK AO1 PRESRR SLP174
SPECI CYNL 272217Z AUTO 02011G16KT 6SM SCT007 BKN019 BKN024 M00/M01 A2996 RMK AO1 PRESRR SLP173
SPECI CYNL 272215Z AUTO 02010G16KT 5SM SCT007 BKN014 BKN024 M00/M01 A2996 RMK AO1 PRESRR SLP173
SPECI CYNL 272214Z AUTO 02012KT 5SM BKN007 OVC026 M00/M01 A2996 RMK AO1 PRESRR SLP173
SPECI CYNL 272213Z AUTO 02013KT 4SM SCT007 BKN010 OVC026 M00/M01 A2996 RMK AO1 PRESRR SLP172
SPECI CYNL 272207Z AUTO 02011KT 4SM BKN007 BKN014 OVC026 M00/M01 A2995 RMK AO1 PRESRR SLP172
SPECI CYNL 272206Z AUTO 02010KT 2SM BKN007 BKN010 OVC014 M00/M01 A2995 RMK AO1 PRESRR SLP172
SPECI CYNL 272205Z AUTO 01009KT 1 1/2SM BKN007 BKN010 OVC014 M00/M01 A2995 RMK AO1 PRESRR SLP172
SPECI CYNL 272204Z AUTO 01008KT 1 1/4SM BKN007 BKN013 OVC026 M00/M01 A2995 RMK AO1 PRESRR SLP172
SPECI CYNL 272203Z AUTO 02008KT 1 1/2SM BKN007 BKN013 OVC025 M00/M01 A2995 RMK AO1 PRESRR SLP172
SPECI CYNL 272201Z AUTO 02007KT 2 1/2SM BKN008 BKN013 OVC023 M00/M01 A2995 RMK AO1 PRESRR SLP171
METAR CYNL 272200Z AUTO 02008KT 3SM SCT008 BKN010 BKN014 M00/M01 A2995 RMK AO1 PRESRR SLP171
SPECI CYNL 272159Z AUTO 03009KT 3SM BKN008 BKN014 OVC025 M00/M01 A2995 RMK AO1 PRESRR SLP171
SPECI CYNL 272158Z AUTO 03010KT 3SM SCT008 BKN011 BKN014 M00/M01 A2995 RMK AO1 PRESRR SLP170
SPECI CYNL 272154Z AUTO 02008G17KT 2 1/2SM SCT008 BKN011 BKN014 M00/M01 A2995 RMK AO1 PRESRR SLP170
SPECI CYNL 272151Z AUTO 03009G17KT 3SM SCT009 BKN014 OVC023 M00/M01 A2995 RMK AO1 PRESRR SLP169
SPECI CYNL 272149Z AUTO 03011G17KT 2 1/2SM SCT009 BKN014 BKN023 M00/M01 A2994 RMK AO1 PRESRR SLP168
SPECI CYNL 272148Z AUTO 03012G17KT 2 1/2SM SCT009 BKN015 BKN023 M00/M01 A2994 RMK AO1 PRESRR SLP168
SPECI CYNL 272144Z AUTO 02010G16KT 5SM SCT009 BKN012 BKN023 M00/M01 A2994 RMK AO1 PRESRR SLP168
SPECI CYNL 272124Z AUTO 02011G17KT 9SM FEW008 SCT012 BKN018 M00/M01 A2993 RMK AO1 PRESRR SLP164
SPECI CYNL 272123Z AUTO 02012KT 9SM SCT011 BKN018 OVC023 M00/M01 A2993 RMK AO1 PRESRR SLP164
SPECI CYNL 272121Z AUTO 02012KT 9SM BKN011 OVC023 M00/M01 A2993 RMK AO1 PRESRR SLP164
SPECI CYNL 272111Z AUTO 02009G17KT 9SM SCT009 BKN018 OVC024 M00/M01 A2993 RMK AO1 PRESRR SLP163
SPECI CYNL 272101Z AUTO 02009KT 6SM FEW008 SCT010 BKN014 M00/M01 A2992 RMK AO1 PRESRR SLP162
METAR CYNL 272100Z AUTO 02010KT 4SM VV010 M00/M01 A2992 RMK AO1 PRESRR SLP161
SPECI CYNL 272059Z AUTO 02012KT 1 3/4SM VV010 M00/M01 A2992 RMK AO1 PRESRR SLP161
SPECI CYNL 272058Z AUTO 03011KT 1SM VV011 M00/M01 A2992 RMK AO1 PRESRR SLP161
SPECI CYNL 272056Z AUTO 02010KT 3/4SM VV012 M00/M01 A2992 RMK AO1 PRESRR SLP161
SPECI CYNL 272054Z AUTO 02011KT 1 3/4SM VV014 M00/M01 A2992 RMK AO1 PRESRR SLP160
SPECI CYNL 272052Z AUTO 02009G16KT 2 1/2SM SCT008 BKN014 OVC024 M00/M01 A2992 RMK AO1 PRESRR SLP160
SPECI CYNL 272047Z AUTO 02012KT 7SM SCT008 BKN013 BKN019 M00/M01 A2992 RMK AO1 PRESRR SLP159
SPECI CYNL 272046Z AUTO 01011KT 7SM BKN008 BKN019 OVC024 M00/M01 A2992 RMK AO1 PRESRR SLP159
SPECI CYNL 272036Z AUTO 01012G17KT 3SM FEW007 SCT010 BKN013 M00/M01 A2992 RMK AO1 PRESRR SLP158
SPECI CYNL 272034Z AUTO 01013KT 2 1/2SM FEW007 SCT010 BKN013 M00/M01 A2991 RMK AO1 PRESRR SLP158
SPECI CYNL 272027Z AUTO 01011G16KT 3SM SCT007 BKN013 BKN019 00/M01 A2991 RMK AO1 PRESRR SLP157
SPECI CYNL 272025Z AUTO 01009G16KT 2SM SCT007 BKN012 OVC024 00/M01 A2991 RMK AO1 PRESRR SLP157
SPECI CYNL 272024Z AUTO 01009G16KT 2SM FEW007 SCT012 BKN019 00/M01 A2991 RMK AO1 PRESRR SLP157
SPECI CYNL 272022Z AUTO 02007G16KT 4SM FEW008 SCT012 BKN019 00/M01 A2991 RMK AO1 PRESRR SLP156
SPECI CYNL 272016Z AUTO 03011G16KT 3SM VV016 M00/M01 A2991 RMK AO1 PRESRR SLP155
SPECI CYNL 272013Z AUTO 02012KT 3SM SCT008 BKN013 BKN018 M00/M01 A2990 RMK AO1 PRESRR SLP155
SPECI CYNL 272012Z AUTO 02011KT 2SM VV014 M00/M01 A2990 RMK AO1 PRESRR SLP154
SPECI CYNL 272010Z AUTO 02007KT 2SM VV015 00/M00 A2990 RMK AO1 PRESRR SLP154
SPECI CYNL 272009Z AUTO 02007KT 2SM VV014 00/M01 A2990 RMK AO1 PRESRR SLP154
SPECI CYNL 272008Z AUTO 02008KT 1 3/4SM VV014 M00/M01 A2990 RMK AO1 PRESRR SLP154
SPECI CYNL 272005Z AUTO 02011KT 1 1/2SM VV018 M00/M01 A2990 RMK AO1 PRESRR SLP153
SPECI CYNL 272004Z AUTO 02011KT 2SM VV018 M00/M01 A2990 RMK AO1 PRESRR SLP153
SPECI CYNL 272003Z AUTO 02011KT 2 1/2SM SCT008 BKN012 OVC024 M00/M01 A2990 RMK AO1 PRESRR SLP153
METAR CYNL 272000Z AUTO 02011KT 3SM SCT008 BKN013 OVC024 M00/M01 A2990 RMK AO1 PRESRR SLP153
SPECI CYNL 271957Z AUTO 02011KT 5SM SCT008 BKN011 OVC022 M00/M01 A2990 RMK AO1 PRESRR SLP152
SPECI CYNL 271955Z AUTO 02010KT 5SM BKN008 BKN020 OVC023 M00/M01 A2990 RMK AO1 PRESRR SLP151
SPECI CYNL 271954Z AUTO 02010KT 5SM SCT008 BKN011 BKN014 M00/M01 A2990 RMK AO1 PRESRR SLP151
SPECI CYNL 271948Z AUTO 02011KT 6SM BKN008 OVC015 M00/M01 A2989 RMK AO1 PRESRR SLP150
SPECI CYNL 271946Z AUTO 02010G15KT 5SM SCT008 BKN012 OVC015 M00/M01 A2989 RMK AO1 PRESRR SLP150
SPECI CYNL 271941Z AUTO 00010G16KT 4SM BKN008 BKN015 OVC024 M00/M01 A2989 RMK AO1 PRESRR SLP149
SPECI CYNL 271932Z AUTO 02011G16KT 7SM FEW008 SCT010 BKN012 M00/M01 A2988 RMK AO1 PRESRR SLP147
SPECI CYNL 271929Z AUTO 02012KT 5SM VV012 M00/M01 A2988 RMK AO1 PRESRR SLP147
SPECI CYNL 271928Z AUTO 01012KT 2 1/2SM VV012 M00/M01 A2988 RMK AO1 PRESRR SLP147
SPECI CYNL 271927Z AUTO 01011KT 1 1/2SM VV010 M00/M01 A2988 RMK AO1 PRESRR SLP147
SPECI CYNL 271925Z AUTO 01009KT 1 1/4SM SCT008 BKN011 BKN018 M00/M01 A2988 RMK AO1 PRESRR SLP146
SPECI CYNL 271924Z AUTO 02010KT 1 3/4SM SCT008 BKN011 BKN018 M00/M01 A2988 RMK AO1 PRESRR SLP146
SPECI CYNL 271923Z AUTO 02009KT 2 1/2SM SCT008 BKN012 BKN018 M00/M01 A2988 RMK AO1 PRESRR SLP146
SPECI CYNL 271916Z AUTO 01009G15KT 6SM FEW008 BKN011 OVC022 M00/M01 A2988 RMK AO1 PRESRR SLP145
SPECI CYNL 271915Z AUTO 01008G15KT 7SM FEW008 SCT011 BKN018 M00/M01 A2988 RMK AO1 PRESRR SLP145
SPECI CYNL 271904Z AUTO 02013KT 4SM SCT008 BKN011 BKN013 M00/M01 A2987 RMK AO1 PRESRR SLP143
SPECI CYNL 271903Z AUTO 02012KT 3SM VV011 M00/M01 A2987 RMK AO1 PRESRR SLP143
SPECI CYNL 271902Z AUTO 02010KT 2 1/2SM VV011 M00/M01 A2987 RMK AO1 PRESRR SLP143
METAR CYNL 271900Z AUTO 01010KT 1 1/2SM VV010 M00/M01 A2987 RMK AO1 PRESRR SLP143
SPECI CYNL 271857Z AUTO 01008KT 1SM VV009 M00/M01 A2987 RMK AO1 SLP143
SPECI CYNL 271856Z AUTO 00007KT 3/4SM VV009 M00/M01 A2987 RMK AO1 SLP142
SPECI CYNL 271854Z AUTO 01008KT 1 1/4SM BKN008 BKN013 OVC022 M00/M01 A2987 RMK AO1 SLP142
SPECI CYNL 271852Z AUTO 01009KT 2 1/2SM SCT008 BKN013 OVC022 M00/M01 A2987 RMK AO1 SLP142
SPECI CYNL 271849Z AUTO 01010KT 3SM SCT008 BKN012 OVC022 M00/M01 A2987 RMK AO1 SLP141
SPECI CYNL 271847Z AUTO 01010KT 2 1/2SM FEW006 SCT009 BKN013 M00/M01 A2987 RMK AO1 SLP141
SPECI CYNL 271846Z AUTO 01009KT 2SM VV012 M00/M01 A2987 RMK AO1 SLP140
SPECI CYNL 271841Z AUTO 01008G15KT 1 3/4SM FEW006 BKN010 OVC022 M00/M01 A2986 RMK AO1 SLP140
SPECI CYNL 271839Z AUTO 02008G15KT 2 1/2SM FEW006 SCT010 BKN014 M00/M01 A2986 RMK AO1 SLP139
SPECI CYNL 271834Z AUTO 02010KT 4SM FEW006 SCT010 BKN014 M00/M01 A2986 RMK AO1 SLP139
SPECI CYNL 271833Z AUTO 02008KT 3SM VV010 M00/M01 A2986 RMK AO1 SLP139
SPECI CYNL 271831Z AUTO 01007KT 2 1/2SM VV011 M00/M01 A2986 RMK AO1 SLP139
SPECI CYNL 271830Z AUTO 02008KT 1 3/4SM VV011 M00/M01 A2986 RMK AO1 SLP139
SPECI CYNL 271828Z AUTO 02010KT 1SM VV011 M00/M01 A2986 RMK AO1 SLP138
SPECI CYNL 271827Z AUTO 02011KT 1SM BKN009 BKN014 OVC024 M00/M01 A2986 RMK AO1 SLP139
SPECI CYNL 271826Z AUTO 03010KT 1 1/4SM SCT009 BKN014 OVC024 M00/M01 A2986 RMK AO1 SLP139
SPECI CYNL 271825Z AUTO 03009KT 1 1/2SM SCT009 BKN015 OVC024 M00/M01 A2986 RMK AO1 SLP138
SPECI CYNL 271823Z AUTO 02010KT 2SM SCT009 BKN016 OVC027 M00/M01 A2986 RMK AO1 SLP138
SPECI CYNL 271821Z AUTO 02009G15KT 2 1/2SM BKN009 BKN019 OVC027 M00/M01 A2986 RMK AO1 SLP138
SPECI CYNL 271820Z AUTO 03008G15KT 3SM BKN009 BKN019 OVC027 M00/M01 A2986 RMK AO1 SLP137
SPECI CYNL 271819Z AUTO 02008G15KT 4SM SCT009 BKN015 BKN019 M00/M01 A2986 RMK AO1 SLP137
SPECI CYNL 271815Z AUTO 02009G15KT 9SM BKN010 BKN019 OVC026 M00/M01 A2985 RMK AO1 SLP137
SPECI CYNL 271807Z AUTO 02010G19KT 9SM BKN009 BKN021 OVC028 M00/M01 A2985 RMK AO1 SLP135
SPECI CYNL 271802Z AUTO 01010G19KT 3SM SCT009 BKN015 BKN019 M01/M01 A2985 RMK AO1 SLP135
SPECI CYNL 271801Z AUTO 02008KT 1 3/4SM SCT009 BKN015 BKN019 M01/M01 A2985 RMK AO1 SLP135
METAR CYNL 271800Z AUTO 02010KT 1 3/4SM VV015 M01/M01 A2985 RMK AO1 SLP135
SPECI CYNL 271759Z AUTO 02010KT 1 3/4SM SCT009 BKN015 BKN019 M01/M01 A2985 RMK AO1 SLP135
SPECI CYNL 271755Z AUTO 03009KT 2 1/2SM SCT008 BKN015 BKN019 M01/M01 A2985 RMK AO1 PRESRR SLP134
SPECI CYNL 271753Z AUTO 03010KT 5SM SCT008 BKN010 BKN019 M01/M02 A2985 RMK AO1 PRESRR SLP134
SPECI CYNL 271752Z AUTO 02010KT 6SM BKN009 BKN019 OVC024 M01/M02 A2985 RMK AO1 PRESRR SLP134
SPECI CYNL 271739Z AUTO 02015KT 7SM FEW006 SCT009 BKN015 M01/M02 A2984 RMK AO1 PRESRR SLP133
SPECI CYNL 271735Z AUTO 02013G19KT 5SM FEW006 SCT009 BKN014 M01/M02 A2984 RMK AO1 PRESRR SLP132
SPECI CYNL 271725Z AUTO 03011KT 4SM SCT006 BKN009 OVC017 M01/M01 A2984 RMK AO1 PRESRR SLP132
SPECI CYNL 271724Z AUTO 03011KT 2SM SCT006 BKN009 OVC015 M01/M01 A2984 RMK AO1 PRESRR SLP132
SPECI CYNL 271721Z AUTO 03010KT 1 1/4SM SCT007 BKN009 OVC016 M01/M01 A2984 RMK AO1 PRESRR SLP132
SPECI CYNL 271720Z AUTO 02009KT 1 3/4SM FEW006 BKN009 OVC015 M01/M01 A2984 RMK AO1 PRESRR SLP132
SPECI CYNL 271719Z AUTO 01009KT 2 1/2SM SCT007 BKN009 OVC015 M01/M01 A2984 RMK AO1 PRESRR SLP131
SPECI CYNL 271717Z AUTO 02008KT 3SM SCT007 BKN009 OVC015 M01/M01 A2984 RMK AO1 PRESRR SLP131
SPECI CYNL 271716Z AUTO 02009KT 2SM SCT007 BKN009 OVC015 M01/M01 A2984 RMK AO1 PRESRR SLP131
SPECI CYNL 271712Z AUTO 01007KT 1 1/2SM SCT007 BKN009 BKN014 M01/M01 A2984 RMK AO1 PRESRR SLP130
SPECI CYNL 271710Z AUTO 01009KT 1 1/4SM SCT007 BKN009 BKN015 M01/M01 A2983 RMK AO1 PRESRR SLP130
SPECI CYNL 271709Z AUTO 01009KT 1 3/4SM BKN007 BKN014 OVC020 M01/M01 A2983 RMK AO1 PRESRR SLP130
SPECI CYNL 271707Z AUTO 03009KT 2SM SCT007 BKN010 BKN014 M01/M01 A2983 RMK AO1 PRESRR SLP130
SPECI CYNL 271705Z AUTO 02010KT 1 1/2SM BKN008 BKN019 OVC023 M01/M01 A2983 RMK AO1 PRESRR SLP130
SPECI CYNL 271703Z AUTO 03009KT 2 1/2SM BKN009 BKN019 OVC023 M01/M01 A2983 RMK AO1 PRESRR SLP129
METAR CYNL 271700Z AUTO 03009KT 5SM SCT009 BKN015 BKN019 M01/M01 A2983 RMK AO1 PRESRR SLP129
SPECI CYNL 271658Z AUTO 03009KT 5SM FEW009 SCT011 BKN014 M01/M02 A2983 RMK AO1 PRESRR SLP129
SPECI CYNL 271657Z AUTO 03009KT 5SM FEW009 SCT014 BKN019 M01/M02 A2983 RMK AO1 SLP129
SPECI CYNL 271655Z AUTO 03009G15KT 4SM SCT009 BKN014 BKN019 M01/M02 A2983 RMK AO1 SLP128
SPECI CYNL 271646Z AUTO 02012G17KT 6SM SCT008 BKN019 OVC023 M01/M02 A2983 RMK AO1 SLP128
SPECI CYNL 271645Z AUTO 02010G17KT 5SM SCT008 BKN014 BKN019 M01/M02 A2983 RMK AO1 SLP127
SPECI CYNL 271644Z AUTO 02012G17KT 3SM SCT008 BKN015 OVC020 M01/M02 A2983 RMK AO1 SLP127
SPECI CYNL 271643Z AUTO 02012KT 1 3/4SM FEW008 SCT011 BKN014 M01/M02 A2983 RMK AO1 SLP127
SPECI CYNL 271641Z AUTO 03011G17KT 1 1/4SM SCT008 BKN019 OVC023 M01/M01 A2983 RMK AO1 SLP127
SPECI CYNL 271640Z AUTO 03011G17KT 1 3/4SM FEW008 SCT013 BKN019 M01/M01 A2983 RMK AO1 SLP127
SPECI CYNL 271629Z AUTO 02011G17KT 7SM FEW009 SCT012 BKN018 M01/M02 A2982 RMK AO1 SLP125
SPECI CYNL 271628Z AUTO 03010G17KT 6SM FEW007 BKN014 OVC021 M01/M01 A2982 RMK AO1 SLP125
SPECI CYNL 271627Z AUTO 04010G17KT 6SM FEW007 SCT010 BKN017 M01/M01 A2982 RMK AO1 SLP125
SPECI CYNL 271619Z AUTO 02011KT 3SM SCT008 BKN013 OVC023 M00/M01 A2982 RMK AO1 SLP124
SPECI CYNL 271618Z AUTO 03011KT 3SM BKN008 BKN013 OVC020 M00/M01 A2982 RMK AO1 SLP123
SPECI CYNL 271612Z AUTO 02009KT 3SM SCT007 BKN013 OVC016 M00/M01 A2982 RMK AO1 SLP123
SPECI CYNL 271610Z AUTO 02009KT 4SM VV012 M01/M01 A2982 RMK AO1 SLP123
SPECI CYNL 271609Z AUTO 02009KT 2 1/2SM VV012 M01/M01 A2981 RMK AO1 SLP122
SPECI CYNL 271608Z AUTO 02010KT 1 1/2SM VV011 M01/M01 A2981 RMK AO1 SLP122
SPECI CYNL 271607Z AUTO 02011KT 1SM VV012 M01/M01 A2981 RMK AO1 SLP122
SPECI CYNL 271606Z AUTO 02012KT 5/8SM VV011 M01/M01 A2981 RMK AO1 SLP122
SPECI CYNL 271605Z AUTO 02012KT 3/4SM VV012 M01/M01 A2981 RMK AO1 SLP122
SPECI CYNL 271602Z AUTO 03010KT 1 1/4SM SCT007 BKN012 OVC016 M00/M01 A2981 RMK AO1 SLP122
SPECI CYNL 271601Z AUTO 03008KT 1 3/4SM SCT007 BKN011 OVC016 M00/M01 A2981 RMK AO1 SLP122
METAR CYNL 271600Z AUTO 02009KT 2SM SCT007 BKN011 OVC016 M00/M01 A2981 RMK AO1 SLP121
SPECI CYNL 271559Z AUTO 03010KT 3SM SCT007 BKN011 OVC016 M00/M01 A2981 RMK AO1 SLP121
SPECI CYNL 271558Z AUTO 03010KT 4SM BKN007 BKN011 OVC017 M00/M01 A2981 RMK AO1 SLP120
SPECI CYNL 271556Z AUTO 02010KT 3SM SCT007 BKN012 OVC016 M00/M01 A2981 RMK AO1 SLP120
SPECI CYNL 271554Z AUTO 03010KT 2SM SCT007 BKN012 OVC016 M00/M01 A2981 RMK AO1 SLP120
SPECI CYNL 271552Z AUTO 03011KT 2SM BKN008 OVC015 M00/M01 A2981 RMK AO1 SLP120
SPECI CYNL 271551Z AUTO 02011KT 2SM SCT008 OVC015 M00/M01 A2981 RMK AO1 SLP119
SPECI CYNL 271550Z AUTO 02010G15KT 2 1/2SM BKN008 OVC015 M00/M01 A2981 RMK AO1 SLP119
SPECI CYNL 271549Z AUTO 02011KT 4SM SCT008 BKN015 OVC021 M00/M01 A2981 RMK AO1 SLP119
SPECI CYNL 271548Z AUTO 03012KT 5SM FEW006 SCT008 BKN012 M00/M01 A2981 RMK AO1 SLP119
SPECI CYNL 271532Z AUTO 04008KT 6SM BKN008 BKN015 OVC021 M00/M01 A2981 RMK AO1 SLP118
SPECI CYNL 271527Z AUTO 04010KT 7SM FEW006 SCT008 BKN011 M00/M01 A2981 RMK AO1 SLP118
SPECI CYNL 271521Z AUTO 02011KT 3SM BKN007 OVC012 M00/M01 A2980 RMK AO1 SLP117
SPECI CYNL 271518Z AUTO 02011KT 2SM BKN007 BKN009 OVC012 M00/M01 A2980 RMK AO1 SLP117
METAR CYNL 271500Z AUTO 03008KT 6SM BKN007 OVC010 M00/M01 A2980 RMK AO1 SLP116
SPECI CYNL 271433Z AUTO 04007KT 9SM BKN007 BKN010 OVC017 M00/M01 A2980 RMK AO1 SLP115
SPECI CYNL 271422Z AUTO 04012G18KT 9SM SCT007 BKN010 OVC015 M00/M01 A2980 RMK AO1 SLP114
SPECI CYNL 271421Z AUTO 05011G18KT 9SM SCT007 BKN009 BKN011 M00/M01 A2980 RMK AO1 SLP113
SPECI CYNL 271409Z AUTO 04013KT 9SM SCT007 BKN011 BKN013 M00/M01 A2979 RMK AO1 SLP112
SPECI CYNL 271406Z AUTO 05012KT 6SM BKN007 BKN011 OVC020 M00/M01 A2979 RMK AO1 SLP112
METAR CYNL 271400Z AUTO 04010G16KT 9SM SCT007 BKN010 BKN013 M00/M01 A2979 RMK AO1 SLP112
SPECI CYNL 271358Z AUTO 04008G16KT 6SM SCT007 BKN011 BKN013 M00/M01 A2979 RMK AO1 SLP111
SPECI CYNL 271357Z AUTO 04010G16KT 5SM BKN007 BKN011 OVC017 M00/M01 A2979 RMK AO1 SLP111
SPECI CYNL 271345Z AUTO 04013KT 7SM SCT007 BKN011 OVC020 M00/M01 A2979 RMK AO1 SLP111
METAR CYNL 271300Z AUTO 03009G17KT 5SM BKN006 OVC011 M00/M01 A2978 RMK AO1 SLP107
METAR CYNL 271200Z AUTO 02010KT 5SM BKN005 OVC012 M00/M01 A2978 RMK AO1 SLP106
SPECI CYNL 271126Z AUTO 03008KT 4SM OVC005 M00/M00 A2978 RMK AO1 SLP106
METAR CYNL 271100Z AUTO 02009KT 3SM OVC004 M00/M00 A2978 RMK AO1 SLP105
SPECI CYNL 271012Z AUTO 02009KT 9SM OVC004 M00/M00 A2978 RMK AO1 SLP104
METAR CYNL 271000Z AUTO 02008KT 9SM OVC005 M00/M01 A2978 RMK AO1 SLP104
METAR CYNL 270900Z AUTO 04009KT 9SM OVC007 00/M01 A2979 RMK AO1 SLP105
METAR CYNL 270800Z AUTO 04008KT 9SM OVC007 01/M01 A2980 RMK AO1 SLP108
METAR CYNL 270700Z AUTO 05009KT 9SM OVC006 01/M01 A2980 RMK AO1 SLP109
METAR CYNL 270600Z AUTO 04007G15KT 9SM OVC006 01/M00 A2979 RMK AO1 SLP109
METAR CYNL 270500Z AUTO 04011KT 9SM OVC006 02/01 A2980 RMK AO1 SLP110
METAR CYNL 270400Z AUTO 06011KT 9SM OVC007 03/01 A2980 RMK AO1 SLP111
METAR CYNL 270300Z AUTO 06006KT 9SM OVC007 03/02 A2981 RMK AO1 SLP112
METAR CYNL 270200Z AUTO 06010KT 9SM OVC006 04/02 A2980 RMK AO1 SLP109
METAR CYNL 270100Z AUTO 07010KT 9SM BKN008 OVC009 05/03 A2979 RMK AO1 SLP105
METAR CYNL 270000Z AUTO 05011KT 9SM OVC009 06/03 A2978 RMK AO1 SLP103
METAR CYNL 262300Z AUTO 06012KT 9SM OVC009 07/04 A2979 RMK AO1 SLP105
SPECI CYNL 262254Z AUTO 06012KT 9SM OVC009 07/05 A2979 RMK AO1 SLP104
METAR CYNL 262200Z AUTO 07009KT 9SM OVC013 08/04 A2979 RMK AO1 SLP105
SPECI CYNL 262132Z AUTO 06007KT 9SM BKN013 08/05 A2979 RMK AO1 SLP103
METAR CYNL 262100Z AUTO 07009KT 9SM SCT011 BKN130 07/04 A2979 RMK AO1 SLP104
SPECI CYNL 262056Z AUTO 08008KT 9SM BKN011 08/04 A2979 RMK AO1 SLP103
SPECI CYNL 262015Z AUTO 07009KT 9SM FEW009 07/04 A2979 RMK AO1 SLP103
METAR CYNL 262000Z AUTO 07009KT 9SM FEW010 SCT014 06/04 A2979 RMK AO1 SLP103
SPECI CYNL 261957Z AUTO 06009KT 9SM FEW009 SCT014 BKN120 06/04 A2979 RMK AO1 SLP103
SPECI CYNL 261933Z AUTO 08007KT 9SM SCT008 BKN014 06/04 A2979 RMK AO1 SLP103
SPECI CYNL 261929Z AUTO 07007KT 9SM SCT008 BKN015 06/04 A2979 RMK AO1 SLP104
METAR CYNL 261900Z AUTO 07008KT 9SM SCT006 06/04 A2979 RMK AO1 SLP104
SPECI CYNL 261853Z AUTO 07008KT 9SM SCT006 BKN086 06/04 A2979 RMK AO1 SLP103
METAR CYNL 261800Z AUTO 08006KT 9SM BKN006 05/04 A2978 RMK AO1 SLP103
SPECI CYNL 261748Z AUTO 10005KT 9SM SCT006 BKN009 05/04 A2979 RMK AO1 SLP104
SPECI CYNL 261705Z AUTO 04004KT 9SM FEW009 SCT035 BKN058 05/04 A2978 RMK AO1 SLP103
METAR CYNL 261700Z AUTO 05006KT 9SM FEW011 SCT034 BKN047 05/03 A2977 RMK AO1 SLP099
SPECI CYNL 261657Z AUTO 03005KT 9SM FEW011 SCT035 BKN047 05/03 A2977 RMK AO1 SLP098
SPECI CYNL 261656Z AUTO 04005KT 9SM VV024 05/03 A2977 RMK AO1 SLP098
SPECI CYNL 261654Z AUTO 05006KT 9SM VV029 05/03 A2977 RMK AO1 SLP097
METAR CYNL 261600Z AUTO 04009KT 9SM CLR 05/02 A2977 RMK AO1 SLP098
METAR CYNL 261500Z AUTO 10006KT 9SM FEW064 SCT190 05/02 A2979 RMK AO1 SLP105
METAR CYNL 261400Z AUTO 09007KT 9SM FEW140 05/02 A2979 RMK AO1 SLP102
METAR CYNL 261300Z AUTO 08007KT 9SM SCT080 04/01 A2978 RMK AO1 SLP099
METAR CYNL 261200Z AUTO 06007KT 9SM OVC094 03/01 A2977 RMK AO1 SLP098
METAR CYNL 261100Z AUTO 06006KT 9SM SCT110 BKN130 03/00 A2976 RMK AO1 SLP093
METAR CYNL 261000Z AUTO 08003KT 9SM CLR 03/00 A2976 RMK AO1 SLP094
METAR CYNL 260900Z AUTO 08004KT 9SM BKN066 03/00 A2976 RMK AO1 PRESFR SLP093
METAR CYNL 260800Z AUTO 09007KT 9SM FEW070 03/00 A2978 RMK AO1 SLP099
METAR CYNL 260700Z AUTO 07005KT 9SM OVC066 04/01 A2980 RMK AO1 SLP105
METAR CYNL 260600Z AUTO 08006KT 9SM BKN066 04/01 A2980 RMK AO1 SLP107
METAR CYNL 260500Z AUTO 08007KT 9SM SCT064 05/01 A2981 RMK AO1 SLP109
METAR CYNL 260400Z AUTO 10010KT 9SM BKN070 05/00 A2982 RMK AO1 SLP113
METAR CYNL 260300Z AUTO 07006KT 9SM FEW043 BKN070 BKN088 06/01 A2983 RMK AO1 SLP118
METAR CYNL 260200Z AUTO 07010KT 9SM FEW049 07/00 A2982 RMK AO1 SLP114
METAR CYNL 260100Z AUTO 08012G18KT 9SM FEW120 07/M00 A2983 RMK AO1 SLP119
METAR CYNL 260000Z AUTO 09011KT 9SM FEW086 08/M00 A2984 RMK AO1 SLP120
METAR CYNL 252300Z AUTO 08009KT 9SM OVC056 08/00 A2985 RMK AO1 SLP127
METAR CYNL 252200Z AUTO 08008KT 9SM OVC062 08/M01 A2987 RMK AO1 SLP133
METAR CYNL 252100Z AUTO 09007G15KT 9SM BKN062 08/M01 A2987 RMK AO1 SLP136
METAR CYNL 252000Z AUTO 08009KT 9SM CLR 08/M01 A2989 RMK AO1 SLP141
METAR CYNL 251900Z AUTO 12006KT 9SM FEW100 SCT200 07/M01 A2991 RMK AO1 SLP147
METAR CYNL 251800Z AUTO 11010KT 9SM FEW096 SCT180 07/M02 A2991 RMK AO1 SLP146
METAR CYNL 251700Z AUTO 09008KT 9SM FEW190 06/M02 A2991 RMK AO1 SLP150
METAR CYNL 251600Z AUTO 08007KT 9SM FEW200 05/M03 A2991 RMK AO1 SLP151
METAR CYNL 251500Z AUTO 09010KT 9SM CLR 05/M03 A2992 RMK AO1 SLP150
METAR CYNL 251400Z AUTO 09009KT 9SM CLR 03/M03 A2992 RMK AO1 SLP149
METAR CYNL 251300Z AUTO 07009KT 9SM CLR 02/M03 A2992 RMK AO1 SLP147
METAR CYNL 251200Z AUTO 07008KT 9SM CLR 00/M03 A2991 RMK AO1 SLP144
METAR CYNL 251100Z AUTO 07005KT 9SM CLR M01/M03 A2991 RMK AO1 SLP147
METAR CYNL 251000Z AUTO 06005KT 9SM CLR M01/M03 A2991 RMK AO1 SLP146
METAR CYNL 250900Z AUTO 06006KT 9SM CLR M01/M03 A2990 RMK AO1 SLP142
METAR CYNL 250800Z AUTO 07004KT 9SM CLR M00/M03 A2989 RMK AO1 SLP142
METAR CYNL 250700Z AUTO 06005KT 9SM CLR 00/M02 A2989 RMK AO1 SLP140
METAR CYNL 250600Z AUTO 06004KT 9SM CLR 01/M02 A2988 RMK AO1 SLP139
METAR CYNL 250500Z AUTO 00000KT 9SM CLR 01/M01 A2987 RMK AO1 SLP138
METAR CYNL 250400Z AUTO 03003KT 9SM CLR 03/M01 A2986 RMK AO1 SLP133
METAR CYNL 250300Z AUTO 35003KT 9SM CLR 08/M01 A2986 RMK AO1 SLP126
METAR CYNL 250200Z AUTO 35005KT 9SM CLR 10/M01 A2985 RMK AO1 SLP123
METAR CYNL 250100Z AUTO 33006KT 9SM CLR 11/M01 A2985 RMK AO1 SLP120
METAR CYNL 250000Z AUTO 33006KT 9SM CLR 11/M01 A2985 RMK AO1 SLP120
METAR CYNL 242300Z AUTO 29008KT 9SM CLR 10/M01 A2985 RMK AO1 SLP123
METAR CYNL 242200Z AUTO 32009G16KT 9SM CLR 09/M01 A2985 RMK AO1 SLP126
METAR CYNL 242100Z AUTO 31007G19KT 9SM CLR 08/M02 A2985 RMK AO1 SLP124
SPECI CYNL 242041Z AUTO 28013G19KT 9SM CLR 07/M02 A2985 RMK AO1 WSHFT (20)41 SLP125
SPECI CYNL 242024Z AUTO 32011G23KT 9SM CLR 07/M02 A2985 RMK AO1 WSHFT (20)24 SLP125
SPECI CYNL 242016Z AUTO 28013G20KT 9SM CLR 07/M02 A2985 RMK AO1 WSHFT (20)16 SLP125
METAR CYNL 242000Z AUTO 29013G19KT 9SM CLR 07/M02 A2985 RMK AO1 SLP125
METAR CYNL 241900Z AUTO 29011G22KT 9SM FEW032 06/M02 A2984 RMK AO1 SLP126
SPECI CYNL 241832Z AUTO 28011G22KT 9SM BKN030 05/M01 A2984 RMK AO1 SLP125
SPECI CYNL 241817Z AUTO 29008G17KT 9SM BKN029 05/M01 A2984 RMK AO1 SLP125
SPECI CYNL 241815Z AUTO 29011G17KT 9SM SCT025 BKN032 05/M01 A2984 RMK AO1 SLP126
SPECI CYNL 241814Z AUTO 29012G17KT 9SM BKN025 BKN032 05/M01 A2984 RMK AO1 SLP126
SPECI CYNL 241812Z AUTO 29012KT 9SM SCT024 OVC032 04/M01 A2984 RMK AO1 SLP125
SPECI CYNL 241808Z AUTO 30012G17KT 9SM OVC026 04/M01 A2984 RMK AO1 SLP125
SPECI CYNL 241807Z AUTO 30011G17KT 9SM SCT025 OVC032 04/M01 A2984 RMK AO1 SLP125
SPECI CYNL 241804Z AUTO 32010G17KT 9SM BKN025 OVC032 04/M01 A2983 RMK AO1 SLP125
METAR CYNL 241800Z AUTO 32011G17KT 9SM BKN024 OVC031 04/M01 A2984 RMK AO1 SLP125
SPECI CYNL 241751Z AUTO 31007G16KT 9SM BKN023 OVC031 04/M01 A2983 RMK AO1 SLP125
SPECI CYNL 241750Z AUTO 30006G16KT 9SM SCT023 OVC030 04/M01 A2983 RMK AO1 SLP125
SPECI CYNL 241749Z AUTO 29009G16KT 9SM BKN024 OVC031 04/M01 A2983 RMK AO1 SLP125
SPECI CYNL 241748Z AUTO 29010G16KT 9SM SCT023 OVC031 04/M01 A2983 RMK AO1 SLP125
SPECI CYNL 241747Z AUTO 30009G15KT 9SM BKN024 OVC031 04/M01 A2983 RMK AO1 SLP125
SPECI CYNL 241713Z AUTO 30010G17KT 9SM BKN025 OVC031 03/M01 A2982 RMK AO1 SLP121
METAR CYNL 241700Z AUTO 31011G19KT 9SM BKN024 OVC030 03/M01 A2982 RMK AO1 SLP120
SPECI CYNL 241656Z AUTO 30012G17KT 9SM OVC024 03/M01 A2982 RMK AO1 SLP119
SPECI CYNL 241646Z AUTO 29011G19KT 9SM OVC025 03/M01 A2981 RMK AO1 SLP117
SPECI CYNL 241644Z AUTO 28011G19KT 9SM BKN024 OVC032 03/M02 A2981 RMK AO1 SLP117
METAR CYNL 241600Z AUTO 29011G17KT 9SM BKN027 OVC034 03/M01 A2980 RMK AO1 SLP114
SPECI CYNL 241542Z AUTO 29011G17KT 9SM BKN026 OVC032 03/M01 A2980 RMK AO1 SLP112
SPECI CYNL 241541Z AUTO 29011G17KT 9SM SCT026 OVC031 03/M01 A2980 RMK AO1 SLP112
SPECI CYNL 241535Z AUTO 28012KT 9SM BKN026 OVC033 03/M02 A2979 RMK AO1 SLP111
SPECI CYNL 241534Z AUTO 29012G17KT 9SM SCT024 OVC031 03/M01 A2980 RMK AO1 SLP111
SPECI CYNL 241532Z AUTO 30012KT 9SM BKN025 OVC032 03/M01 A2980 RMK AO1 SLP111
SPECI CYNL 241530Z AUTO 28010KT 9SM BKN024 OVC031 03/M01 A2980 RMK AO1 SLP111
SPECI CYNL 241529Z AUTO 28009KT 9SM SCT024 OVC032 03/M01 A2980 RMK AO1 SLP111
SPECI CYNL 241512Z AUTO 29011G17KT 9SM OVC024 03/M01 A2979 RMK AO1 SLP111
METAR CYNL 241500Z AUTO 28010G16KT 9SM BKN025 03/M01 A2979 RMK AO1 SLP111
SPECI CYNL 241440Z AUTO 28009G18KT 9SM BKN026 04/M01 A2979 RMK AO1 SLP107
METAR CYNL 241400Z AUTO 29010G20KT 9SM FEW014 SCT027 04/01 A2977 RMK AO1 SLP103
SPECI CYNL 241350Z AUTO 28010G16KT 9SM FEW010 SCT014 03/01 A2977 RMK AO1 SLP101
SPECI CYNL 241348Z AUTO 29010G16KT 9SM FEW010 SCT014 BKN020 03/01 A2977 RMK AO1 SLP101
SPECI CYNL 241314Z AUTO 28009KT 9SM FEW006 SCT009 OVC013 02/02 A2977 RMK AO1 SLP101
METAR CYNL 241300Z AUTO 28006KT 9SM SCT006 BKN009 OVC013 03/02 A2977 RMK AO1 SLP100
METAR CYNL 241200Z AUTO 26005KT 9SM BKN005 BKN007 OVC010 02/02 A2976 RMK AO1 SLP101
SPECI CYNL 241146Z AUTO 24005KT 9SM SCT005 BKN007 OVC018 01/01 A2977 RMK AO1 SLP102
SPECI CYNL 241113Z AUTO 24005KT 6SM FEW008 BKN016 BKN020 01/01 A2977 RMK AO1 SLP103
SPECI CYNL 241112Z AUTO 24003KT 5SM FEW010 BKN016 BKN020 01/01 A2977 RMK AO1 SLP103
SPECI CYNL 241111Z AUTO 24003KT 3SM VV014 01/01 A2977 RMK AO1 SLP103
SPECI CYNL 241110Z AUTO 24004KT 2SM VV014 01/01 A2977 RMK AO1 SLP103
SPECI CYNL 241109Z AUTO 25004KT 2SM VV015 01/01 A2977 RMK AO1 SLP104
SPECI CYNL 241105Z AUTO 24003KT 1 3/4SM FEW008 SCT010 BKN017 01/01 A2977 RMK AO1 SLP104
SPECI CYNL 241104Z AUTO 24003KT 2 1/2SM FEW008 SCT010 BKN017 01/01 A2977 RMK AO1 SLP104
METAR CYNL 241100Z AUTO 25003KT 9SM FEW005 SCT010 OVC019 01/01 A2977 RMK AO1 SLP104
SPECI CYNL 241047Z AUTO 23002KT 3SM SCT005 BKN010 OVC016 01/01 A2977 RMK AO1 SLP102
SPECI CYNL 241046Z AUTO 23002KT 2SM SCT005 OVC010 01/01 A2977 RMK AO1 SLP102
SPECI CYNL 241045Z AUTO 23003KT 1 3/4SM SCT005 OVC011 01/01 A2977 RMK AO1 SLP102
SPECI CYNL 241044Z AUTO 23003KT 2SM SCT005 OVC011 01/01 A2977 RMK AO1 SLP102
SPECI CYNL 241043Z AUTO 23003KT 3SM SCT005 OVC011 01/01 A2977 RMK AO1 SLP103
SPECI CYNL 241021Z AUTO 00000KT 3SM BKN005 OVC019 01/01 A2977 RMK AO1 SLP101
SPECI CYNL 241020Z AUTO 00000KT 2SM SCT005 BKN008 OVC019 01/01 A2977 RMK AO1 SLP102
SPECI CYNL 241018Z AUTO 00000KT 1 3/4SM SCT005 BKN008 OVC019 01/01 A2977 RMK AO1 SLP102
SPECI CYNL 241016Z AUTO 00000KT 5SM SCT006 BKN008 BKN019 01/01 A2977 RMK AO1 SLP102
METAR CYNL 241000Z AUTO 24002KT 7SM FEW009 BKN020 01/01 A2977 RMK AO1 SLP103
SPECI CYNL 240935Z AUTO 22003KT 4SM FEW007 SCT018 OVC023 02/01 A2978 RMK AO1 SLP103
METAR CYNL 240900Z AUTO 26003KT 9SM OVC024 02/01 A2978 RMK AO1 SLP106
METAR CYNL 240800Z AUTO 26004KT 9SM OVC024 02/01 A2979 RMK AO1 SLP109
SPECI CYNL 240743Z AUTO 23004KT 9SM BKN024 OVC029 01/01 A2979 RMK AO1 SLP110
SPECI CYNL 240724Z AUTO 22003KT 9SM BKN026 01/01 A2979 RMK AO1 SLP110
SPECI CYNL 240707Z AUTO 23002KT 9SM SCT027 BKN038 01/01 A2979 RMK AO1 SLP110
SPECI CYNL 240703Z AUTO 23003KT 9SM BKN027 01/01 A2979 RMK AO1 SLP111
METAR CYNL 240700Z AUTO 24003KT 9SM SCT028 01/01 A2979 RMK AO1 SLP111
SPECI CYNL 240659Z AUTO 23003KT 9SM SCT028 01/01 A2979 RMK AO1 SLP111
SPECI CYNL 240646Z AUTO 24003KT 9SM BKN029 01/01 A2980 RMK AO1 SLP113
METAR CYNL 240600Z AUTO 24004KT 9SM BKN034 01/00 A2980 RMK AO1 SLP112
SPECI CYNL 240502Z AUTO 26005KT 9SM SCT028 02/01 A2980 RMK AO1 SLP111
METAR CYNL 240500Z AUTO 26005KT 9SM BKN028 03/01 A2980 RMK AO1 SLP111
SPECI CYNL 240421Z AUTO 26004KT 9SM BKN029 03/02 A2979 RMK AO1 SLP112
METAR CYNL 240400Z AUTO 27004KT 9SM SCT022 03/02 A2980 RMK AO1 SLP112
METAR CYNL 240300Z AUTO 27006KT 9SM FEW012 SCT015 04/03 A2978 RMK AO1 SLP107
SPECI CYNL 240257Z AUTO 28008KT 9SM FEW012 SCT015 04/03 A2978 RMK AO1 SLP107
SPECI CYNL 240239Z AUTO 28006KT 9SM FEW011 SCT014 BKN024 04/03 A2977 RMK AO1 SLP104
SPECI CYNL 240238Z AUTO 28005KT 9SM SCT013 BKN025 04/03 A2977 RMK AO1 SLP104
SPECI CYNL 240224Z AUTO 28007KT 9SM FEW007 SCT011 BKN015 04/03 A2977 RMK AO1 SLP104
SPECI CYNL 240207Z AUTO 28009KT 9SM SCT007 BKN010 OVC015 04/03 A2977 RMK AO1 SLP102
METAR CYNL 240200Z AUTO 27006KT 5SM SCT006 BKN009 OVC012 04/04 A2976 RMK AO1 SLP102
SPECI CYNL 240158Z AUTO 27005KT 4SM SCT006 BKN009 OVC012 04/04 A2976 RMK AO1 SLP102
SPECI CYNL 240157Z AUTO 27006KT 2 1/2SM SCT006 BKN009 OVC012 04/04 A2976 RMK AO1 SLP102
SPECI CYNL 240156Z AUTO 27007KT 1 1/2SM SCT007 BKN009 BKN012 04/04 A2976 RMK AO1 SLP102
SPECI CYNL 240154Z AUTO 27007KT 1 1/4SM SCT007 BKN009 BKN012 04/03 A2976 RMK AO1 SLP102
SPECI CYNL 240152Z AUTO 28007KT 1 1/2SM BKN008 BKN012 OVC043 04/03 A2976 RMK AO1 SLP102
SPECI CYNL 240151Z AUTO 27007KT 2SM BKN008 BKN012 OVC043 04/03 A2976 RMK AO1 SLP102
SPECI CYNL 240135Z AUTO 27008KT 9SM BKN008 OVC043 04/03 A2976 RMK AO1 SLP101
SPECI CYNL 240133Z AUTO 28007KT 9SM SCT008 BKN012 OVC043 04/03 A2976 RMK AO1 SLP101
METAR CYNL 240100Z AUTO 29009G15KT 9SM BKN009 BKN034 03/03 A2975 RMK AO1 SLP098
SPECI CYNL 240044Z AUTO 29008G18KT 9SM BKN009 BKN035 OVC049 03/03 A2975 RMK AO1 SLP097
SPECI CYNL 240041Z AUTO 28011G18KT 9SM FEW008 BKN010 BKN034 03/03 A2975 RMK AO1 SLP097
SPECI CYNL 240040Z AUTO 28012G18KT 9SM BKN009 BKN034 OVC048 03/03 A2975 RMK AO1 SLP097
SPECI CYNL 240036Z AUTO 29011G18KT 9SM SCT008 BKN011 OVC034 03/03 A2974 RMK AO1 SLP096
SPECI CYNL 240035Z AUTO 28010G17KT 9SM BKN009 OVC034 03/03 A2974 RMK AO1 SLP096
SPECI CYNL 240031Z AUTO 28013KT 9SM SCT008 BKN011 BKN020 03/03 A2974 RMK AO1 SLP095
SPECI CYNL 240022Z AUTO 29009G16KT 9SM FEW005 BKN009 BKN020 03/03 A2974 RMK AO1 SLP093
SPECI CYNL 240021Z AUTO 29007G17KT 9SM FEW005 SCT009 BKN012 03/03 A2974 RMK AO1 SLP093
SPECI CYNL 240020Z AUTO 28009G17KT 9SM FEW006 BKN009 BKN020 03/03 A2974 RMK AO1 SLP093
SPECI CYNL 240016Z AUTO 28010G18KT 9SM SCT006 BKN012 BKN020 03/03 A2973 RMK AO1 SLP093
METAR CYNL 240000Z AUTO 29007G16KT 8SM OVC005 03/03 A2973 RMK AO1 SLP092
SPECI CYNL 232343Z AUTO 29009KT 3SM SCT005 BKN008 BKN020 03/03 A2973 RMK AO1 PRESRR SLP090
SPECI CYNL 232342Z AUTO 29009KT 2SM SCT005 BKN008 BKN020 03/03 A2973 RMK AO1 PRESRR SLP089
SPECI CYNL 232338Z AUTO 29010G18KT 1 3/4SM FEW004 SCT006 BKN008 03/03 A2973 RMK AO1 PRESRR SLP089
SPECI CYNL 232337Z AUTO 29011G18KT 2 1/2SM SCT006 BKN008 BKN022 03/03 A2972 RMK AO1 PRESRR SLP089
SPECI CYNL 232333Z AUTO 29008G18KT 8SM BKN008 BKN025 03/03 A2972 RMK AO1 PRESRR SLP088
SPECI CYNL 232304Z AUTO 28008G16KT 9SM SCT007 BKN015 OVC020 04/04 A2972 RMK AO1 PRESRR SLP086
METAR CYNL 232300Z AUTO 28009G16KT 9SM SCT007 BKN009 BKN015 04/04 A2971 RMK AO1 PRESRR SLP085
SPECI CYNL 232245Z AUTO 28007KT 3SM BKN007 BKN009 OVC014 04/04 A2971 RMK AO1 SLP082
SPECI CYNL 232243Z AUTO 28006KT 2 1/2SM SCT007 BKN009 BKN014 04/04 A2971 RMK AO1 SLP082
SPECI CYNL 232233Z AUTO 28009KT 9SM VV009 04/04 A2970 RMK AO1 SLP081
SPECI CYNL 232232Z AUTO 28008KT 9SM VV010 04/04 A2970 RMK AO1 SLP081
SPECI CYNL 232223Z AUTO 28008KT 4SM FEW004 BKN007 OVC014 05/04 A2970 RMK AO1 SLP079
SPECI CYNL 232218Z AUTO 28008KT 8SM SCT005 BKN012 OVC015 05/04 A2970 RMK AO1 SLP078
SPECI CYNL 232212Z AUTO 28010KT 6SM BKN005 BKN008 OVC012 05/05 A2969 RMK AO1 SLP077
SPECI CYNL 232211Z AUTO 28010KT 2 1/2SM BKN005 BKN008 OVC011 05/05 A2969 RMK AO1 SLP077
SPECI CYNL 232210Z AUTO 28009KT 1 1/2SM BKN005 OVC011 05/05 A2969 RMK AO1 SLP077
SPECI CYNL 232209Z AUTO 28007KT 1 1/4SM BKN005 OVC008 05/05 A2969 RMK AO1 SLP077
SPECI CYNL 232208Z AUTO 27006KT 1 1/4SM BKN004 BKN006 OVC008 05/05 A2969 RMK AO1 SLP076
SPECI CYNL 232206Z AUTO 27007KT 1 3/4SM BKN005 OVC008 05/05 A2969 RMK AO1 SLP076
SPECI CYNL 232205Z AUTO 27006KT 2 1/2SM BKN005 OVC008 05/05 A2969 RMK AO1 SLP076
SPECI CYNL 232203Z AUTO 26006KT 3SM BKN005 OVC011 05/05 A2969 RMK AO1 SLP076
SPECI CYNL 232202Z AUTO 26005KT 1 3/4SM BKN005 OVC011 05/05 A2969 RMK AO1 SLP075
METAR CYNL 232200Z AUTO 27004KT 1SM BKN005 OVC011 05/05 A2969 RMK AO1 SLP075
SPECI CYNL 232152Z AUTO 27005KT 1 1/4SM BKN005 OVC008 05/05 A2969 RMK AO1 SLP075
SPECI CYNL 232151Z AUTO 27005KT 1 1/2SM BKN005 OVC008 05/05 A2969 RMK AO1 SLP075
SPECI CYNL 232150Z AUTO 28005KT 2SM BKN005 OVC008 05/05 A2969 RMK AO1 SLP075
SPECI CYNL 232140Z AUTO 26003KT 3SM OVC005 05/05 A2969 RMK AO1 SLP074
SPECI CYNL 232139Z AUTO 25003KT 2SM OVC005 05/05 A2969 RMK AO1 SLP074
SPECI CYNL 232138Z AUTO 25003KT 1 3/4SM OVC005 05/05 A2969 RMK AO1 SLP074
SPECI CYNL 232135Z AUTO 26004KT 2SM BKN005 OVC007 05/05 A2968 RMK AO1 SLP074
SPECI CYNL 232132Z AUTO 25007KT 1 1/2SM BKN005 OVC008 05/05 A2968 RMK AO1 SLP073
SPECI CYNL 232129Z AUTO 25005KT 1 1/4SM BKN006 OVC008 05/05 A2968 RMK AO1 SLP073
SPECI CYNL 232126Z AUTO 25005KT 1 3/4SM BKN006 OVC008 05/05 A2968 RMK AO1 SLP073
SPECI CYNL 232121Z AUTO 24005KT 2 1/2SM BKN006 OVC008 05/05 A2968 RMK AO1 SLP073
METAR CYNL 232100Z AUTO 24006KT 9SM OVC008 05/05 A2968 RMK AO1 SLP072
SPECI CYNL 232049Z AUTO 22004KT 9SM SCT007 OVC009 05/05 A2968 RMK AO1 SLP071
SPECI CYNL 232048Z AUTO 22005KT 9SM SCT008 OVC010 05/05 A2968 RMK AO1 SLP071
SPECI CYNL 232040Z AUTO 23006KT 7SM BKN007 OVC010 05/05 A2968 RMK AO1 SLP070
SPECI CYNL 232035Z AUTO 22005KT 6SM SCT007 BKN011 OVC017 05/05 A2967 RMK AO1 SLP070
SPECI CYNL 232032Z AUTO 23004KT 6SM SCT007 BKN009 BKN011 05/05 A2968 RMK AO1 SLP070
SPECI CYNL 232016Z AUTO 23003KT 6SM SCT007 BKN013 BKN017 04/04 A2967 RMK AO1 SLP071
SPECI CYNL 232015Z AUTO 23003KT 5SM SCT007 BKN015 OVC022 04/04 A2967 RMK AO1 SLP071
SPECI CYNL 232014Z AUTO 23004KT 5SM SCT006 BKN012 BKN016 04/04 A2967 RMK AO1 SLP071
SPECI CYNL 232010Z AUTO 23003KT 4SM SCT006 BKN016 OVC022 04/04 A2967 RMK AO1 SLP070
SPECI CYNL 232007Z AUTO 23003KT 4SM SCT006 BKN014 OVC022 04/04 A2967 RMK AO1 SLP070
SPECI CYNL 232006Z AUTO 22003KT 5SM SCT006 BKN016 OVC022 04/04 A2967 RMK AO1 SLP070
METAR CYNL 232000Z AUTO 23002KT 5SM FEW005 BKN007 BKN016 04/04 A2967 RMK AO1 SLP071
SPECI CYNL 231922Z AUTO 18002KT 8SM SCT004 BKN007 OVC010 04/04 A2967 RMK AO1 SLP071
METAR CYNL 231900Z AUTO 00000KT 6SM OVC003 03/03 A2968 RMK AO1 SLP073
METAR CYNL 231800Z AUTO 10004KT 5SM OVC003 03/03 A2967 RMK AO1 SLP071
SPECI CYNL 231753Z AUTO 11004KT 3SM OVC002 02/02 A2967 RMK AO1 SLP072
SPECI CYNL 231752Z AUTO 11005KT 2 1/2SM OVC002 02/02 A2967 RMK AO1 SLP072
SPECI CYNL 231751Z AUTO 11005KT 1 1/2SM OVC002 02/02 A2967 RMK AO1 SLP072